Check out our new PWSWeather beta!
PWSweather.com
Personal Weather Stations
Station Observations
KILASHKU1
Ashkum, IL

Ashkum, IL

Lat: 40.8779862, Lon: -87.846552

Elevation: 626

Station Type: Davis Vantage Pro 2

High Low Average
Temperature 33.8°F1.0°C 13.4°F-10.3°C 24.1°F-4.4°C
Dew Point 21.0°F-6.1°C 11.0°F-11.7°C 15.4°F-9.2°C
Winds 5.0 mph 8.0 kmh Calm Calm 2.0 mph SW3.2 kmh SW
Wind Gusts 12.0 mph19.3 kmh -- 5.0 mph8.0 kmh
Humidity 93% 41% 71%
Pressure 30.58 in1035.6 mb 30.31 in1026.4 mb -
Precipitation 0.00 in0.0 mm - -
Hour Temp Dew Point Humidity Winds Wind Gusts Pressure Precip Precip Rate Daily Precip Total
12:00 AM 19.3°F-7.1°C 16.1°F-8.8°C 87% Calm Calm -- 30.55 in1034.5 mb 0.00 in0.0 mm 0.00 in0.0 mm 0.00 in0.0 mm
12:02 AM 19.2°F-7.1°C 15.7°F-9.1°C 86% Calm Calm -- 30.55 in1034.5 mb 0.00 in0.0 mm 0.00 in0.0 mm 0.00 in0.0 mm
12:04 AM 19.2°F-7.1°C 16.0°F-8.9°C 87% Calm Calm -- 30.55 in1034.5 mb 0.00 in0.0 mm 0.00 in0.0 mm 0.00 in0.0 mm
12:06 AM 19.1°F-7.2°C 15.9°F-8.9°C 87% Calm Calm 1.0 mph1.6 kmh 30.55 in1034.5 mb 0.00 in0.0 mm 0.00 in0.0 mm 0.00 in0.0 mm
12:08 AM 19.1°F-7.2°C 15.9°F-8.9°C 87% Calm Calm 1.0 mph1.6 kmh 30.55 in1034.5 mb 0.00 in0.0 mm 0.00 in0.0 mm 0.00 in0.0 mm
12:10 AM 19.1°F-7.2°C 15.9°F-8.9°C 87% Calm Calm 1.0 mph1.6 kmh 30.55 in1034.5 mb 0.00 in0.0 mm 0.00 in0.0 mm 0.00 in0.0 mm
12:12 AM 19.0°F-7.2°C 15.8°F-9.0°C 87% Calm Calm 1.0 mph1.6 kmh 30.55 in1034.5 mb 0.00 in0.0 mm 0.00 in0.0 mm 0.00 in0.0 mm
12:14 AM 19.0°F-7.2°C 15.8°F-9.0°C 87% Calm Calm 1.0 mph1.6 kmh 30.55 in1034.5 mb 0.00 in0.0 mm 0.00 in0.0 mm 0.00 in0.0 mm
12:16 AM 18.9°F-7.3°C 15.7°F-9.1°C 87% Calm Calm 2.0 mph3.2 kmh 30.55 in1034.5 mb 0.00 in0.0 mm 0.00 in0.0 mm 0.00 in0.0 mm
12:18 AM 18.9°F-7.3°C 15.7°F-9.1°C 87% Calm Calm 2.0 mph3.2 kmh 30.55 in1034.5 mb 0.00 in0.0 mm 0.00 in0.0 mm 0.00 in0.0 mm
12:20 AM 18.9°F-7.3°C 15.7°F-9.1°C 87% Calm Calm 2.0 mph3.2 kmh 30.55 in1034.5 mb 0.00 in0.0 mm 0.00 in0.0 mm 0.00 in0.0 mm
12:22 AM 18.8°F-7.3°C 15.6°F-9.1°C 87% Calm Calm 2.0 mph3.2 kmh 30.55 in1034.5 mb 0.00 in0.0 mm 0.00 in0.0 mm 0.00 in0.0 mm
12:24 AM 18.8°F-7.3°C 15.6°F-9.1°C 87% Calm Calm 2.0 mph3.2 kmh 30.55 in1034.5 mb 0.00 in0.0 mm 0.00 in0.0 mm 0.00 in0.0 mm
12:26 AM 18.8°F-7.3°C 15.6°F-9.1°C 87% 1.0 mph NW1.6 kmh NW 2.0 mph3.2 kmh 30.55 in1034.5 mb 0.00 in0.0 mm 0.00 in0.0 mm 0.00 in0.0 mm
12:28 AM 18.8°F-7.3°C 15.6°F-9.1°C 87% 1.0 mph NW1.6 kmh NW 2.0 mph3.2 kmh 30.55 in1034.5 mb 0.00 in0.0 mm 0.00 in0.0 mm 0.00 in0.0 mm
12:30 AM 18.8°F-7.3°C 15.6°F-9.1°C 87% 1.0 mph NW1.6 kmh NW 2.0 mph3.2 kmh 30.55 in1034.5 mb 0.00 in0.0 mm 0.00 in0.0 mm 0.00 in0.0 mm
12:32 AM 18.8°F-7.3°C 15.6°F-9.1°C 87% 1.0 mph NW1.6 kmh NW 2.0 mph3.2 kmh 30.55 in1034.5 mb 0.00 in0.0 mm 0.00 in0.0 mm 0.00 in0.0 mm
12:34 AM 18.8°F-7.3°C 15.6°F-9.1°C 87% 1.0 mph NW1.6 kmh NW 2.0 mph3.2 kmh 30.56 in1034.9 mb 0.00 in0.0 mm 0.00 in0.0 mm 0.00 in0.0 mm
12:36 AM 18.7°F-7.4°C 15.5°F-9.2°C 87% 1.0 mph NW1.6 kmh NW 3.0 mph4.8 kmh 30.56 in1034.9 mb 0.00 in0.0 mm 0.00 in0.0 mm 0.00 in0.0 mm
12:38 AM 18.7°F-7.4°C 15.5°F-9.2°C 87% 1.0 mph NW1.6 kmh NW 3.0 mph4.8 kmh 30.56 in1034.9 mb 0.00 in0.0 mm 0.00 in0.0 mm 0.00 in0.0 mm
12:40 AM 18.7°F-7.4°C 15.5°F-9.2°C 87% 1.0 mph NW1.6 kmh NW 3.0 mph4.8 kmh 30.56 in1034.9 mb 0.00 in0.0 mm 0.00 in0.0 mm 0.00 in0.0 mm
12:42 AM 18.6°F-7.4°C 15.4°F-9.2°C 87% 1.0 mph NW1.6 kmh NW 3.0 mph4.8 kmh 30.56 in1034.9 mb 0.00 in0.0 mm 0.00 in0.0 mm 0.00 in0.0 mm
12:44 AM 18.6°F-7.4°C 15.4°F-9.2°C 87% 1.0 mph NW1.6 kmh NW 3.0 mph4.8 kmh 30.56 in1034.9 mb 0.00 in0.0 mm 0.00 in0.0 mm 0.00 in0.0 mm
12:46 AM 18.6°F-7.4°C 15.4°F-9.2°C 87% 1.0 mph NW1.6 kmh NW 2.0 mph3.2 kmh 30.56 in1034.9 mb 0.00 in0.0 mm 0.00 in0.0 mm 0.00 in0.0 mm
12:48 AM 18.6°F-7.4°C 15.4°F-9.2°C 87% 1.0 mph NW1.6 kmh NW 2.0 mph3.2 kmh 30.56 in1034.9 mb 0.00 in0.0 mm 0.00 in0.0 mm 0.00 in0.0 mm
12:50 AM 18.5°F-7.5°C 15.3°F-9.3°C 87% 1.0 mph NW1.6 kmh NW 2.0 mph3.2 kmh 30.56 in1034.9 mb 0.00 in0.0 mm 0.00 in0.0 mm 0.00 in0.0 mm
12:52 AM 18.5°F-7.5°C 15.3°F-9.3°C 87% 1.0 mph NW1.6 kmh NW 2.0 mph3.2 kmh 30.56 in1034.9 mb 0.00 in0.0 mm 0.00 in0.0 mm 0.00 in0.0 mm
12:54 AM 18.4°F-7.6°C 15.2°F-9.3°C 87% 1.0 mph NW1.6 kmh NW 3.0 mph4.8 kmh 30.56 in1034.9 mb 0.00 in0.0 mm 0.00 in0.0 mm 0.00 in0.0 mm
12:56 AM 18.3°F-7.6°C 15.1°F-9.4°C 87% 2.0 mph NW3.2 kmh NW 3.0 mph4.8 kmh 30.56 in1034.9 mb 0.00 in0.0 mm 0.00 in0.0 mm 0.00 in0.0 mm
12:58 AM 18.2°F-7.7°C 15.0°F-9.4°C 87% 2.0 mph NW3.2 kmh NW 3.0 mph4.8 kmh 30.56 in1034.9 mb 0.00 in0.0 mm 0.00 in0.0 mm 0.00 in0.0 mm
01:00 AM 18.2°F-7.7°C 15.0°F-9.4°C 87% 2.0 mph NW3.2 kmh NW 4.0 mph6.4 kmh 30.56 in1034.9 mb 0.00 in0.0 mm 0.00 in0.0 mm 0.00 in0.0 mm
01:02 AM 18.1°F-7.7°C 14.6°F-9.7°C 86% 3.0 mph NW4.8 kmh NW 4.0 mph6.4 kmh 30.56 in1034.9 mb 0.00 in0.0 mm 0.00 in0.0 mm 0.00 in0.0 mm
01:04 AM 18.1°F-7.7°C 14.6°F-9.7°C 86% 3.0 mph NW4.8 kmh NW 4.0 mph6.4 kmh 30.55 in1034.5 mb 0.00 in0.0 mm 0.00 in0.0 mm 0.00 in0.0 mm
01:06 AM 18.2°F-7.7°C 15.0°F-9.4°C 87% 3.0 mph NW4.8 kmh NW 4.0 mph6.4 kmh 30.55 in1034.5 mb 0.00 in0.0 mm 0.00 in0.0 mm 0.00 in0.0 mm
01:08 AM 18.2°F-7.7°C 15.0°F-9.4°C 87% 3.0 mph NW4.8 kmh NW 4.0 mph6.4 kmh 30.56 in1034.9 mb 0.00 in0.0 mm 0.00 in0.0 mm 0.00 in0.0 mm
01:10 AM 18.3°F-7.6°C 15.1°F-9.4°C 87% 3.0 mph NW4.8 kmh NW 4.0 mph6.4 kmh 30.56 in1034.9 mb 0.00 in0.0 mm 0.00 in0.0 mm 0.00 in0.0 mm
01:12 AM 18.3°F-7.6°C 15.1°F-9.4°C 87% 2.0 mph NW3.2 kmh NW 4.0 mph6.4 kmh 30.56 in1034.9 mb 0.00 in0.0 mm 0.00 in0.0 mm 0.00 in0.0 mm
01:14 AM 18.3°F-7.6°C 15.1°F-9.4°C 87% 2.0 mph NW3.2 kmh NW 4.0 mph6.4 kmh 30.56 in1034.9 mb 0.00 in0.0 mm 0.00 in0.0 mm 0.00 in0.0 mm
01:16 AM 18.3°F-7.6°C 15.1°F-9.4°C 87% 2.0 mph NW3.2 kmh NW 3.0 mph4.8 kmh 30.56 in1034.9 mb 0.00 in0.0 mm 0.00 in0.0 mm 0.00 in0.0 mm
01:18 AM 18.3°F-7.6°C 15.1°F-9.4°C 87% 1.0 mph NW1.6 kmh NW 2.0 mph3.2 kmh 30.56 in1034.9 mb 0.00 in0.0 mm 0.00 in0.0 mm 0.00 in0.0 mm
01:20 AM 18.4°F-7.6°C 15.2°F-9.3°C 87% 1.0 mph NW1.6 kmh NW 2.0 mph3.2 kmh 30.56 in1034.9 mb 0.00 in0.0 mm 0.00 in0.0 mm 0.00 in0.0 mm
01:22 AM 18.4°F-7.6°C 15.2°F-9.3°C 87% 1.0 mph NW1.6 kmh NW 2.0 mph3.2 kmh 30.56 in1034.9 mb 0.00 in0.0 mm 0.00 in0.0 mm 0.00 in0.0 mm
01:24 AM 18.4°F-7.6°C 15.2°F-9.3°C 87% 1.0 mph NW1.6 kmh NW 2.0 mph3.2 kmh 30.56 in1034.9 mb 0.00 in0.0 mm 0.00 in0.0 mm 0.00 in0.0 mm
01:26 AM 18.4°F-7.6°C 15.2°F-9.3°C 87% 1.0 mph NW1.6 kmh NW 3.0 mph4.8 kmh 30.56 in1034.9 mb 0.00 in0.0 mm 0.00 in0.0 mm 0.00 in0.0 mm
01:28 AM 18.3°F-7.6°C 15.1°F-9.4°C 87% 1.0 mph NW1.6 kmh NW 4.0 mph6.4 kmh 30.56 in1034.9 mb 0.00 in0.0 mm 0.00 in0.0 mm 0.00 in0.0 mm
01:30 AM 18.3°F-7.6°C 14.8°F-9.6°C 86% 2.0 mph NW3.2 kmh NW 4.0 mph6.4 kmh 30.56 in1034.9 mb 0.00 in0.0 mm 0.00 in0.0 mm 0.00 in0.0 mm
01:32 AM 18.3°F-7.6°C 14.8°F-9.6°C 86% 2.0 mph NW3.2 kmh NW 4.0 mph6.4 kmh 30.56 in1034.9 mb 0.00 in0.0 mm 0.00 in0.0 mm 0.00 in0.0 mm
01:34 AM 18.2°F-7.7°C 14.7°F-9.6°C 86% 3.0 mph NW4.8 kmh NW 4.0 mph6.4 kmh 30.56 in1034.9 mb 0.00 in0.0 mm 0.00 in0.0 mm 0.00 in0.0 mm
01:36 AM 18.2°F-7.7°C 14.7°F-9.6°C 86% 3.0 mph NW4.8 kmh NW 4.0 mph6.4 kmh 30.56 in1034.9 mb 0.00 in0.0 mm 0.00 in0.0 mm 0.00 in0.0 mm
01:38 AM 18.2°F-7.7°C 14.7°F-9.6°C 86% 2.0 mph NW3.2 kmh NW 4.0 mph6.4 kmh 30.56 in1034.9 mb 0.00 in0.0 mm 0.00 in0.0 mm 0.00 in0.0 mm
01:40 AM 18.2°F-7.7°C 14.7°F-9.6°C 86% 2.0 mph NW3.2 kmh NW 4.0 mph6.4 kmh 30.56 in1034.9 mb 0.00 in0.0 mm 0.00 in0.0 mm 0.00 in0.0 mm
01:42 AM 18.2°F-7.7°C 14.7°F-9.6°C 86% 2.0 mph NW3.2 kmh NW 3.0 mph4.8 kmh 30.55 in1034.5 mb 0.00 in0.0 mm 0.00 in0.0 mm 0.00 in0.0 mm
01:44 AM 18.1°F-7.7°C 14.6°F-9.7°C 86% 2.0 mph NW3.2 kmh NW 3.0 mph4.8 kmh 30.55 in1034.5 mb 0.00 in0.0 mm 0.00 in0.0 mm 0.00 in0.0 mm
01:46 AM 18.1°F-7.7°C 14.9°F-9.5°C 87% 2.0 mph NW3.2 kmh NW 3.0 mph4.8 kmh 30.55 in1034.5 mb 0.00 in0.0 mm 0.00 in0.0 mm 0.00 in0.0 mm
01:48 AM 18.1°F-7.7°C 14.9°F-9.5°C 87% 2.0 mph NW3.2 kmh NW 3.0 mph4.8 kmh 30.56 in1034.9 mb 0.00 in0.0 mm 0.00 in0.0 mm 0.00 in0.0 mm
01:50 AM 18.1°F-7.7°C 14.9°F-9.5°C 87% 2.0 mph NW3.2 kmh NW 3.0 mph4.8 kmh 30.56 in1034.9 mb 0.00 in0.0 mm 0.00 in0.0 mm 0.00 in0.0 mm
01:52 AM 18.0°F-7.8°C 14.8°F-9.6°C 87% 2.0 mph NW3.2 kmh NW 3.0 mph4.8 kmh 30.56 in1034.9 mb 0.00 in0.0 mm 0.00 in0.0 mm 0.00 in0.0 mm
01:54 AM 18.0°F-7.8°C 14.8°F-9.6°C 87% 2.0 mph NW3.2 kmh NW 3.0 mph4.8 kmh 30.55 in1034.5 mb 0.00 in0.0 mm 0.00 in0.0 mm 0.00 in0.0 mm
01:56 AM 18.0°F-7.8°C 14.8°F-9.6°C 87% 2.0 mph NW3.2 kmh NW 3.0 mph4.8 kmh 30.55 in1034.5 mb 0.00 in0.0 mm 0.00 in0.0 mm 0.00 in0.0 mm
01:58 AM 18.0°F-7.8°C 14.8°F-9.6°C 87% 2.0 mph NW3.2 kmh NW 3.0 mph4.8 kmh 30.56 in1034.9 mb 0.00 in0.0 mm 0.00 in0.0 mm 0.00 in0.0 mm
02:00 AM 18.0°F-7.8°C 14.8°F-9.6°C 87% 2.0 mph NW3.2 kmh NW 3.0 mph4.8 kmh 30.56 in1034.9 mb 0.00 in0.0 mm 0.00 in0.0 mm 0.00 in0.0 mm
02:02 AM 17.9°F-7.8°C 14.7°F-9.6°C 87% 1.0 mph NW1.6 kmh NW 3.0 mph4.8 kmh 30.56 in1034.9 mb 0.00 in0.0 mm 0.00 in0.0 mm 0.00 in0.0 mm
02:04 AM 17.9°F-7.8°C 14.7°F-9.6°C 87% 1.0 mph NW1.6 kmh NW 3.0 mph4.8 kmh 30.56 in1034.9 mb 0.00 in0.0 mm 0.00 in0.0 mm 0.00 in0.0 mm
02:06 AM 17.8°F-7.9°C 14.6°F-9.7°C 87% 1.0 mph NW1.6 kmh NW 3.0 mph4.8 kmh 30.56 in1034.9 mb 0.00 in0.0 mm 0.00 in0.0 mm 0.00 in0.0 mm
02:08 AM 17.8°F-7.9°C 14.6°F-9.7°C 87% 1.0 mph NW1.6 kmh NW 2.0 mph3.2 kmh 30.56 in1034.9 mb 0.00 in0.0 mm 0.00 in0.0 mm 0.00 in0.0 mm
02:10 AM 17.8°F-7.9°C 14.6°F-9.7°C 87% Calm Calm 2.0 mph3.2 kmh 30.56 in1034.9 mb 0.00 in0.0 mm 0.00 in0.0 mm 0.00 in0.0 mm
02:12 AM 17.8°F-7.9°C 14.6°F-9.7°C 87% Calm Calm 2.0 mph3.2 kmh 30.56 in1034.9 mb 0.00 in0.0 mm 0.00 in0.0 mm 0.00 in0.0 mm
02:14 AM 17.7°F-7.9°C 14.5°F-9.7°C 87% Calm Calm 2.0 mph3.2 kmh 30.56 in1034.9 mb 0.00 in0.0 mm 0.00 in0.0 mm 0.00 in0.0 mm
02:16 AM 17.7°F-7.9°C 14.5°F-9.7°C 87% Calm Calm 2.0 mph3.2 kmh 30.56 in1034.9 mb 0.00 in0.0 mm 0.00 in0.0 mm 0.00 in0.0 mm
02:18 AM 17.7°F-7.9°C 14.8°F-9.6°C 88% Calm Calm 2.0 mph3.2 kmh 30.56 in1034.9 mb 0.00 in0.0 mm 0.00 in0.0 mm 0.00 in0.0 mm
02:20 AM 17.6°F-8.0°C 14.7°F-9.6°C 88% Calm Calm 2.0 mph3.2 kmh 30.56 in1034.9 mb 0.00 in0.0 mm 0.00 in0.0 mm 0.00 in0.0 mm
02:22 AM 17.6°F-8.0°C 14.7°F-9.6°C 88% Calm Calm 1.0 mph1.6 kmh 30.56 in1034.9 mb 0.00 in0.0 mm 0.00 in0.0 mm 0.00 in0.0 mm
02:24 AM 17.6°F-8.0°C 14.7°F-9.6°C 88% Calm Calm 2.0 mph3.2 kmh 30.56 in1034.9 mb 0.00 in0.0 mm 0.00 in0.0 mm 0.00 in0.0 mm
02:26 AM 17.6°F-8.0°C 14.7°F-9.6°C 88% Calm Calm 2.0 mph3.2 kmh 30.56 in1034.9 mb 0.00 in0.0 mm 0.00 in0.0 mm 0.00 in0.0 mm
02:28 AM 17.6°F-8.0°C 14.7°F-9.6°C 88% Calm Calm 2.0 mph3.2 kmh 30.56 in1034.9 mb 0.00 in0.0 mm 0.00 in0.0 mm 0.00 in0.0 mm
02:30 AM 17.5°F-8.1°C 14.6°F-9.7°C 88% Calm Calm 2.0 mph3.2 kmh 30.56 in1034.9 mb 0.00 in0.0 mm 0.00 in0.0 mm 0.00 in0.0 mm
02:32 AM 17.5°F-8.1°C 14.6°F-9.7°C 88% 1.0 mph NW1.6 kmh NW 3.0 mph4.8 kmh 30.56 in1034.9 mb 0.00 in0.0 mm 0.00 in0.0 mm 0.00 in0.0 mm
02:34 AM 17.5°F-8.1°C 14.6°F-9.7°C 88% 1.0 mph NW1.6 kmh NW 3.0 mph4.8 kmh 30.56 in1034.9 mb 0.00 in0.0 mm 0.00 in0.0 mm 0.00 in0.0 mm
02:36 AM 17.5°F-8.1°C 14.6°F-9.7°C 88% 1.0 mph NW1.6 kmh NW 3.0 mph4.8 kmh 30.56 in1034.9 mb 0.00 in0.0 mm 0.00 in0.0 mm 0.00 in0.0 mm
02:38 AM 17.5°F-8.1°C 14.6°F-9.7°C 88% 2.0 mph NW3.2 kmh NW 3.0 mph4.8 kmh 30.56 in1034.9 mb 0.00 in0.0 mm 0.00 in0.0 mm 0.00 in0.0 mm
02:40 AM 17.5°F-8.1°C 14.6°F-9.7°C 88% 2.0 mph NW3.2 kmh NW 3.0 mph4.8 kmh 30.56 in1034.9 mb 0.00 in0.0 mm 0.00 in0.0 mm 0.00 in0.0 mm
02:42 AM 17.4°F-8.1°C 14.5°F-9.7°C 88% 2.0 mph NW3.2 kmh NW 3.0 mph4.8 kmh 30.56 in1034.9 mb 0.00 in0.0 mm 0.00 in0.0 mm 0.00 in0.0 mm
02:44 AM 17.4°F-8.1°C 14.5°F-9.7°C 88% 1.0 mph NW1.6 kmh NW 3.0 mph4.8 kmh 30.56 in1034.9 mb 0.00 in0.0 mm 0.00 in0.0 mm 0.00 in0.0 mm
02:46 AM 17.4°F-8.1°C 14.5°F-9.7°C 88% 1.0 mph NW1.6 kmh NW 2.0 mph3.2 kmh 30.56 in1034.9 mb 0.00 in0.0 mm 0.00 in0.0 mm 0.00 in0.0 mm
02:48 AM 17.3°F-8.2°C 14.4°F-9.8°C 88% Calm Calm 2.0 mph3.2 kmh 30.56 in1034.9 mb 0.00 in0.0 mm 0.00 in0.0 mm 0.00 in0.0 mm
02:50 AM 17.3°F-8.2°C 14.4°F-9.8°C 88% Calm Calm 1.0 mph1.6 kmh 30.56 in1034.9 mb 0.00 in0.0 mm 0.00 in0.0 mm 0.00 in0.0 mm
02:52 AM 17.3°F-8.2°C 14.4°F-9.8°C 88% Calm Calm 1.0 mph1.6 kmh 30.56 in1034.9 mb 0.00 in0.0 mm 0.00 in0.0 mm 0.00 in0.0 mm
02:54 AM 17.3°F-8.2°C 14.4°F-9.8°C 88% Calm Calm 1.0 mph1.6 kmh 30.56 in1034.9 mb 0.00 in0.0 mm 0.00 in0.0 mm 0.00 in0.0 mm
02:56 AM 17.2°F-8.2°C 14.3°F-9.8°C 88% Calm Calm 1.0 mph1.6 kmh 30.56 in1034.9 mb 0.00 in0.0 mm 0.00 in0.0 mm 0.00 in0.0 mm
02:58 AM 17.2°F-8.2°C 14.3°F-9.8°C 88% Calm Calm 1.0 mph1.6 kmh 30.56 in1034.9 mb 0.00 in0.0 mm 0.00 in0.0 mm 0.00 in0.0 mm
03:00 AM 17.2°F-8.2°C 14.3°F-9.8°C 88% Calm Calm -- 30.56 in1034.9 mb 0.00 in0.0 mm 0.00 in0.0 mm 0.00 in0.0 mm
03:02 AM 17.2°F-8.2°C 14.3°F-9.8°C 88% Calm Calm -- 30.56 in1034.9 mb 0.00 in0.0 mm 0.00 in0.0 mm 0.00 in0.0 mm
03:04 AM 17.2°F-8.2°C 14.3°F-9.8°C 88% Calm Calm -- 30.56 in1034.9 mb 0.00 in0.0 mm 0.00 in0.0 mm 0.00 in0.0 mm
03:06 AM 17.1°F-8.3°C 14.2°F-9.9°C 88% Calm Calm -- 30.56 in1034.9 mb 0.00 in0.0 mm 0.00 in0.0 mm 0.00 in0.0 mm
03:08 AM 17.1°F-8.3°C 14.2°F-9.9°C 88% Calm Calm 1.0 mph1.6 kmh 30.56 in1034.9 mb 0.00 in0.0 mm 0.00 in0.0 mm 0.00 in0.0 mm
03:10 AM 17.1°F-8.3°C 14.2°F-9.9°C 88% Calm Calm 1.0 mph1.6 kmh 30.56 in1034.9 mb 0.00 in0.0 mm 0.00 in0.0 mm 0.00 in0.0 mm
03:12 AM 17.0°F-8.3°C 14.1°F-9.9°C 88% Calm Calm 1.0 mph1.6 kmh 30.56 in1034.9 mb 0.00 in0.0 mm 0.00 in0.0 mm 0.00 in0.0 mm
03:14 AM 17.0°F-8.3°C 14.1°F-9.9°C 88% Calm Calm 1.0 mph1.6 kmh 30.56 in1034.9 mb 0.00 in0.0 mm 0.00 in0.0 mm 0.00 in0.0 mm
03:16 AM 17.0°F-8.3°C 14.1°F-9.9°C 88% Calm Calm 1.0 mph1.6 kmh 30.56 in1034.9 mb 0.00 in0.0 mm 0.00 in0.0 mm 0.00 in0.0 mm
03:18 AM 16.9°F-8.4°C 14.0°F-10.0°C 88% Calm Calm -- 30.56 in1034.9 mb 0.00 in0.0 mm 0.00 in0.0 mm 0.00 in0.0 mm
03:20 AM 16.8°F-8.4°C 13.9°F-10.1°C 88% Calm Calm -- 30.56 in1034.9 mb 0.00 in0.0 mm 0.00 in0.0 mm 0.00 in0.0 mm
03:22 AM 16.8°F-8.4°C 13.9°F-10.1°C 88% Calm Calm -- 30.56 in1034.9 mb 0.00 in0.0 mm 0.00 in0.0 mm 0.00 in0.0 mm
03:24 AM 16.8°F-8.4°C 13.9°F-10.1°C 88% Calm Calm -- 30.56 in1034.9 mb 0.00 in0.0 mm 0.00 in0.0 mm 0.00 in0.0 mm
03:26 AM 16.7°F-8.5°C 13.8°F-10.1°C 88% Calm Calm -- 30.56 in1034.9 mb 0.00 in0.0 mm 0.00 in0.0 mm 0.00 in0.0 mm
03:28 AM 16.6°F-8.6°C 13.7°F-10.2°C 88% Calm Calm -- 30.55 in1034.5 mb 0.00 in0.0 mm 0.00 in0.0 mm 0.00 in0.0 mm
03:30 AM 16.6°F-8.6°C 13.7°F-10.2°C 88% Calm Calm -- 30.55 in1034.5 mb 0.00 in0.0 mm 0.00 in0.0 mm 0.00 in0.0 mm
03:32 AM 16.6°F-8.6°C 13.7°F-10.2°C 88% Calm Calm -- 30.55 in1034.5 mb 0.00 in0.0 mm 0.00 in0.0 mm 0.00 in0.0 mm
03:34 AM 16.5°F-8.6°C 13.6°F-10.2°C 88% Calm Calm -- 30.56 in1034.9 mb 0.00 in0.0 mm 0.00 in0.0 mm 0.00 in0.0 mm
03:36 AM 16.4°F-8.7°C 13.7°F-10.2°C 89% Calm Calm -- 30.55 in1034.5 mb 0.00 in0.0 mm 0.00 in0.0 mm 0.00 in0.0 mm
03:38 AM 16.4°F-8.7°C 13.5°F-10.3°C 88% Calm Calm -- 30.55 in1034.5 mb 0.00 in0.0 mm 0.00 in0.0 mm 0.00 in0.0 mm
03:40 AM 16.4°F-8.7°C 13.7°F-10.2°C 89% Calm Calm -- 30.55 in1034.5 mb 0.00 in0.0 mm 0.00 in0.0 mm 0.00 in0.0 mm
03:42 AM 16.4°F-8.7°C 13.7°F-10.2°C 89% Calm Calm -- 30.55 in1034.5 mb 0.00 in0.0 mm 0.00 in0.0 mm 0.00 in0.0 mm
03:44 AM 16.3°F-8.7°C 13.6°F-10.2°C 89% Calm Calm -- 30.55 in1034.5 mb 0.00 in0.0 mm 0.00 in0.0 mm 0.00 in0.0 mm
03:46 AM 16.3°F-8.7°C 13.6°F-10.2°C 89% Calm Calm -- 30.55 in1034.5 mb 0.00 in0.0 mm 0.00 in0.0 mm 0.00 in0.0 mm
03:48 AM 16.2°F-8.8°C 13.5°F-10.3°C 89% Calm Calm -- 30.55 in1034.5 mb 0.00 in0.0 mm 0.00 in0.0 mm 0.00 in0.0 mm
03:50 AM 16.2°F-8.8°C 13.5°F-10.3°C 89% Calm Calm -- 30.55 in1034.5 mb 0.00 in0.0 mm 0.00 in0.0 mm 0.00 in0.0 mm
03:52 AM 16.2°F-8.8°C 13.5°F-10.3°C 89% Calm Calm 1.0 mph1.6 kmh 30.55 in1034.5 mb 0.00 in0.0 mm 0.00 in0.0 mm 0.00 in0.0 mm
03:54 AM 16.1°F-8.8°C 13.4°F-10.3°C 89% Calm Calm 1.0 mph1.6 kmh 30.55 in1034.5 mb 0.00 in0.0 mm 0.00 in0.0 mm 0.00 in0.0 mm
03:56 AM 16.1°F-8.8°C 13.4°F-10.3°C 89% Calm Calm 1.0 mph1.6 kmh 30.55 in1034.5 mb 0.00 in0.0 mm 0.00 in0.0 mm 0.00 in0.0 mm
03:58 AM 16.0°F-8.9°C 13.3°F-10.4°C 89% Calm Calm 1.0 mph1.6 kmh 30.55 in1034.5 mb 0.00 in0.0 mm 0.00 in0.0 mm 0.00 in0.0 mm
04:00 AM 16.0°F-8.9°C 13.3°F-10.4°C 89% Calm Calm 1.0 mph1.6 kmh 30.55 in1034.5 mb 0.00 in0.0 mm 0.00 in0.0 mm 0.00 in0.0 mm
04:02 AM 15.9°F-8.9°C 13.2°F-10.4°C 89% Calm Calm 1.0 mph1.6 kmh 30.55 in1034.5 mb 0.00 in0.0 mm 0.00 in0.0 mm 0.00 in0.0 mm
04:04 AM 15.8°F-9.0°C 13.1°F-10.5°C 89% Calm Calm 1.0 mph1.6 kmh 30.55 in1034.5 mb 0.00 in0.0 mm 0.00 in0.0 mm 0.00 in0.0 mm
04:06 AM 15.8°F-9.0°C 13.1°F-10.5°C 89% Calm Calm 1.0 mph1.6 kmh 30.55 in1034.5 mb 0.00 in0.0 mm 0.00 in0.0 mm 0.00 in0.0 mm
04:08 AM 15.7°F-9.1°C 13.0°F-10.6°C 89% Calm Calm 1.0 mph1.6 kmh 30.55 in1034.5 mb 0.00 in0.0 mm 0.00 in0.0 mm 0.00 in0.0 mm
04:10 AM 15.6°F-9.1°C 12.9°F-10.6°C 89% Calm Calm 1.0 mph1.6 kmh 30.56 in1034.9 mb 0.00 in0.0 mm 0.00 in0.0 mm 0.00 in0.0 mm
04:12 AM 15.5°F-9.2°C 12.8°F-10.7°C 89% Calm Calm -- 30.56 in1034.9 mb 0.00 in0.0 mm 0.00 in0.0 mm 0.00 in0.0 mm
04:14 AM 15.4°F-9.2°C 12.7°F-10.7°C 89% Calm Calm -- 30.55 in1034.5 mb 0.00 in0.0 mm 0.00 in0.0 mm 0.00 in0.0 mm
04:16 AM 15.4°F-9.2°C 12.7°F-10.7°C 89% Calm Calm -- 30.56 in1034.9 mb 0.00 in0.0 mm 0.00 in0.0 mm 0.00 in0.0 mm
04:18 AM 15.3°F-9.3°C 12.6°F-10.8°C 89% Calm Calm -- 30.56 in1034.9 mb 0.00 in0.0 mm 0.00 in0.0 mm 0.00 in0.0 mm
04:20 AM 15.3°F-9.3°C 12.6°F-10.8°C 89% Calm Calm -- 30.56 in1034.9 mb 0.00 in0.0 mm 0.00 in0.0 mm 0.00 in0.0 mm
04:22 AM 15.2°F-9.3°C 12.5°F-10.8°C 89% Calm Calm -- 30.55 in1034.5 mb 0.00 in0.0 mm 0.00 in0.0 mm 0.00 in0.0 mm
04:24 AM 15.1°F-9.4°C 12.4°F-10.9°C 89% Calm Calm 1.0 mph1.6 kmh 30.55 in1034.5 mb 0.00 in0.0 mm 0.00 in0.0 mm 0.00 in0.0 mm
04:26 AM 15.0°F-9.4°C 12.3°F-10.9°C 89% Calm Calm 1.0 mph1.6 kmh 30.55 in1034.5 mb 0.00 in0.0 mm 0.00 in0.0 mm 0.00 in0.0 mm
04:28 AM 14.9°F-9.5°C 12.2°F-11.0°C 89% Calm Calm 1.0 mph1.6 kmh 30.55 in1034.5 mb 0.00 in0.0 mm 0.00 in0.0 mm 0.00 in0.0 mm
04:30 AM 14.9°F-9.5°C 12.2°F-11.0°C 89% Calm Calm 1.0 mph1.6 kmh 30.55 in1034.5 mb 0.00 in0.0 mm 0.00 in0.0 mm 0.00 in0.0 mm
04:32 AM 14.8°F-9.6°C 12.1°F-11.1°C 89% Calm Calm 1.0 mph1.6 kmh 30.55 in1034.5 mb 0.00 in0.0 mm 0.00 in0.0 mm 0.00 in0.0 mm
04:34 AM 14.7°F-9.6°C 12.0°F-11.1°C 89% Calm Calm 1.0 mph1.6 kmh 30.55 in1034.5 mb 0.00 in0.0 mm 0.00 in0.0 mm 0.00 in0.0 mm
04:36 AM 14.6°F-9.7°C 11.9°F-11.2°C 89% Calm Calm 1.0 mph1.6 kmh 30.55 in1034.5 mb 0.00 in0.0 mm 0.00 in0.0 mm 0.00 in0.0 mm
04:38 AM 14.6°F-9.7°C 11.9°F-11.2°C 89% Calm Calm 1.0 mph1.6 kmh 30.55 in1034.5 mb 0.00 in0.0 mm 0.00 in0.0 mm 0.00 in0.0 mm
04:40 AM 14.5°F-9.7°C 11.9°F-11.2°C 89% Calm Calm 1.0 mph1.6 kmh 30.55 in1034.5 mb 0.00 in0.0 mm 0.00 in0.0 mm 0.00 in0.0 mm
04:42 AM 14.5°F-9.7°C 12.1°F-11.1°C 90% Calm Calm -- 30.55 in1034.5 mb 0.00 in0.0 mm 0.00 in0.0 mm 0.00 in0.0 mm
04:44 AM 14.4°F-9.8°C 12.0°F-11.1°C 90% Calm Calm -- 30.55 in1034.5 mb 0.00 in0.0 mm 0.00 in0.0 mm 0.00 in0.0 mm
04:46 AM 14.4°F-9.8°C 11.8°F-11.2°C 89% Calm Calm -- 30.55 in1034.5 mb 0.00 in0.0 mm 0.00 in0.0 mm 0.00 in0.0 mm
04:48 AM 14.4°F-9.8°C 12.0°F-11.1°C 90% Calm Calm -- 30.55 in1034.5 mb 0.00 in0.0 mm 0.00 in0.0 mm 0.00 in0.0 mm
04:50 AM 14.4°F-9.8°C 12.0°F-11.1°C 90% Calm Calm -- 30.56 in1034.9 mb 0.00 in0.0 mm 0.00 in0.0 mm 0.00 in0.0 mm
04:52 AM 14.3°F-9.8°C 11.9°F-11.2°C 90% Calm Calm -- 30.56 in1034.9 mb 0.00 in0.0 mm 0.00 in0.0 mm 0.00 in0.0 mm
04:54 AM 14.3°F-9.8°C 11.9°F-11.2°C 90% Calm Calm -- 30.56 in1034.9 mb 0.00 in0.0 mm 0.00 in0.0 mm 0.00 in0.0 mm
04:56 AM 14.3°F-9.8°C 11.9°F-11.2°C 90% Calm Calm -- 30.56 in1034.9 mb 0.00 in0.0 mm 0.00 in0.0 mm 0.00 in0.0 mm
04:58 AM 14.3°F-9.8°C 11.9°F-11.2°C 90% Calm Calm -- 30.56 in1034.9 mb 0.00 in0.0 mm 0.00 in0.0 mm 0.00 in0.0 mm
05:00 AM 14.3°F-9.8°C 11.9°F-11.2°C 90% Calm Calm -- 30.56 in1034.9 mb 0.00 in0.0 mm 0.00 in0.0 mm 0.00 in0.0 mm
05:02 AM 14.3°F-9.8°C 11.9°F-11.2°C 90% Calm Calm -- 30.56 in1034.9 mb 0.00 in0.0 mm 0.00 in0.0 mm 0.00 in0.0 mm
05:04 AM 14.3°F-9.8°C 11.9°F-11.2°C 90% Calm Calm -- 30.56 in1034.9 mb 0.00 in0.0 mm 0.00 in0.0 mm 0.00 in0.0 mm
05:06 AM 14.3°F-9.8°C 11.9°F-11.2°C 90% Calm Calm -- 30.56 in1034.9 mb 0.00 in0.0 mm 0.00 in0.0 mm 0.00 in0.0 mm
05:08 AM 14.4°F-9.8°C 12.0°F-11.1°C 90% Calm Calm -- 30.56 in1034.9 mb 0.00 in0.0 mm 0.00 in0.0 mm 0.00 in0.0 mm
05:10 AM 14.4°F-9.8°C 12.0°F-11.1°C 90% Calm Calm -- 30.56 in1034.9 mb 0.00 in0.0 mm 0.00 in0.0 mm 0.00 in0.0 mm
05:12 AM 14.4°F-9.8°C 12.3°F-10.9°C 91% Calm Calm -- 30.57 in1035.2 mb 0.00 in0.0 mm 0.00 in0.0 mm 0.00 in0.0 mm
05:14 AM 14.4°F-9.8°C 12.3°F-10.9°C 91% Calm Calm 1.0 mph1.6 kmh 30.57 in1035.2 mb 0.00 in0.0 mm 0.00 in0.0 mm 0.00 in0.0 mm
05:16 AM 14.4°F-9.8°C 12.0°F-11.1°C 90% Calm Calm 1.0 mph1.6 kmh 30.57 in1035.2 mb 0.00 in0.0 mm 0.00 in0.0 mm 0.00 in0.0 mm
05:18 AM 14.4°F-9.8°C 12.3°F-10.9°C 91% Calm Calm 1.0 mph1.6 kmh 30.57 in1035.2 mb 0.00 in0.0 mm 0.00 in0.0 mm 0.00 in0.0 mm
05:20 AM 14.4°F-9.8°C 12.0°F-11.1°C 90% Calm Calm 1.0 mph1.6 kmh 30.56 in1034.9 mb 0.00 in0.0 mm 0.00 in0.0 mm 0.00 in0.0 mm
05:22 AM 14.4°F-9.8°C 12.0°F-11.1°C 90% Calm Calm 1.0 mph1.6 kmh 30.56 in1034.9 mb 0.00 in0.0 mm 0.00 in0.0 mm 0.00 in0.0 mm
05:24 AM 14.4°F-9.8°C 12.0°F-11.1°C 90% Calm Calm 1.0 mph1.6 kmh 30.56 in1034.9 mb 0.00 in0.0 mm 0.00 in0.0 mm 0.00 in0.0 mm
05:26 AM 14.3°F-9.8°C 11.9°F-11.2°C 90% Calm Calm 1.0 mph1.6 kmh 30.56 in1034.9 mb 0.00 in0.0 mm 0.00 in0.0 mm 0.00 in0.0 mm
05:28 AM 14.3°F-9.8°C 11.9°F-11.2°C 90% Calm Calm 1.0 mph1.6 kmh 30.56 in1034.9 mb 0.00 in0.0 mm 0.00 in0.0 mm 0.00 in0.0 mm
05:30 AM 14.3°F-9.8°C 11.9°F-11.2°C 90% Calm Calm 1.0 mph1.6 kmh 30.56 in1034.9 mb 0.00 in0.0 mm 0.00 in0.0 mm 0.00 in0.0 mm
05:32 AM 14.3°F-9.8°C 11.9°F-11.2°C 90% Calm Calm 1.0 mph1.6 kmh 30.56 in1034.9 mb 0.00 in0.0 mm 0.00 in0.0 mm 0.00 in0.0 mm
05:34 AM 14.3°F-9.8°C 11.9°F-11.2°C 90% Calm Calm 1.0 mph1.6 kmh 30.56 in1034.9 mb 0.00 in0.0 mm 0.00 in0.0 mm 0.00 in0.0 mm
05:36 AM 14.2°F-9.9°C 11.8°F-11.2°C 90% Calm Calm -- 30.57 in1035.2 mb 0.00 in0.0 mm 0.00 in0.0 mm 0.00 in0.0 mm
05:38 AM 14.2°F-9.9°C 11.8°F-11.2°C 90% Calm Calm 1.0 mph1.6 kmh 30.57 in1035.2 mb 0.00 in0.0 mm 0.00 in0.0 mm 0.00 in0.0 mm
05:40 AM 14.2°F-9.9°C 11.8°F-11.2°C 90% Calm Calm 2.0 mph3.2 kmh 30.57 in1035.2 mb 0.00 in0.0 mm 0.00 in0.0 mm 0.00 in0.0 mm
05:42 AM 14.1°F-9.9°C 11.7°F-11.3°C 90% Calm Calm 2.0 mph3.2 kmh 30.57 in1035.2 mb 0.00 in0.0 mm 0.00 in0.0 mm 0.00 in0.0 mm
05:44 AM 14.1°F-9.9°C 11.7°F-11.3°C 90% Calm Calm 2.0 mph3.2 kmh 30.57 in1035.2 mb 0.00 in0.0 mm 0.00 in0.0 mm 0.00 in0.0 mm
05:46 AM 14.1°F-9.9°C 11.7°F-11.3°C 90% Calm Calm 2.0 mph3.2 kmh 30.57 in1035.2 mb 0.00 in0.0 mm 0.00 in0.0 mm 0.00 in0.0 mm
05:48 AM 14.0°F-10.0°C 11.6°F-11.3°C 90% Calm Calm 2.0 mph3.2 kmh 30.57 in1035.2 mb 0.00 in0.0 mm 0.00 in0.0 mm 0.00 in0.0 mm
05:50 AM 14.0°F-10.0°C 11.6°F-11.3°C 90% Calm Calm 1.0 mph1.6 kmh 30.57 in1035.2 mb 0.00 in0.0 mm 0.00 in0.0 mm 0.00 in0.0 mm
05:52 AM 13.9°F-10.1°C 11.5°F-11.4°C 90% Calm Calm 1.0 mph1.6 kmh 30.57 in1035.2 mb 0.00 in0.0 mm 0.00 in0.0 mm 0.00 in0.0 mm
05:54 AM 13.9°F-10.1°C 11.5°F-11.4°C 90% Calm Calm 1.0 mph1.6 kmh 30.57 in1035.2 mb 0.00 in0.0 mm 0.00 in0.0 mm 0.00 in0.0 mm
05:56 AM 13.8°F-10.1°C 11.4°F-11.4°C 90% Calm Calm 1.0 mph1.6 kmh 30.57 in1035.2 mb 0.00 in0.0 mm 0.00 in0.0 mm 0.00 in0.0 mm
05:58 AM 13.7°F-10.2°C 11.3°F-11.5°C 90% Calm Calm 1.0 mph1.6 kmh 30.56 in1034.9 mb 0.00 in0.0 mm 0.00 in0.0 mm 0.00 in0.0 mm
06:00 AM 13.7°F-10.2°C 11.3°F-11.5°C 90% Calm Calm 1.0 mph1.6 kmh 30.56 in1034.9 mb 0.00 in0.0 mm 0.00 in0.0 mm 0.00 in0.0 mm
06:02 AM 13.7°F-10.2°C 11.3°F-11.5°C 90% Calm Calm 1.0 mph1.6 kmh 30.56 in1034.9 mb 0.00 in0.0 mm 0.00 in0.0 mm 0.00 in0.0 mm
06:04 AM 13.7°F-10.2°C 11.3°F-11.5°C 90% Calm Calm 1.0 mph1.6 kmh 30.56 in1034.9 mb 0.00 in0.0 mm 0.00 in0.0 mm 0.00 in0.0 mm
06:06 AM 13.6°F-10.2°C 11.2°F-11.6°C 90% Calm Calm 1.0 mph1.6 kmh 30.56 in1034.9 mb 0.00 in0.0 mm 0.00 in0.0 mm 0.00 in0.0 mm
06:08 AM 13.6°F-10.2°C 11.2°F-11.6°C 90% Calm Calm 1.0 mph1.6 kmh 30.56 in1034.9 mb 0.00 in0.0 mm 0.00 in0.0 mm 0.00 in0.0 mm
06:10 AM 13.6°F-10.2°C 11.2°F-11.6°C 90% Calm Calm -- 30.56 in1034.9 mb 0.00 in0.0 mm 0.00 in0.0 mm 0.00 in0.0 mm
06:12 AM 13.6°F-10.2°C 11.2°F-11.6°C 90% Calm Calm -- 30.56 in1034.9 mb 0.00 in0.0 mm 0.00 in0.0 mm 0.00 in0.0 mm
06:14 AM 13.5°F-10.3°C 11.1°F-11.6°C 90% Calm Calm -- 30.56 in1034.9 mb 0.00 in0.0 mm 0.00 in0.0 mm 0.00 in0.0 mm
06:16 AM 13.5°F-10.3°C 11.1°F-11.6°C 90% Calm Calm -- 30.56 in1034.9 mb 0.00 in0.0 mm 0.00 in0.0 mm 0.00 in0.0 mm
06:18 AM 13.5°F-10.3°C 11.1°F-11.6°C 90% Calm Calm -- 30.56 in1034.9 mb 0.00 in0.0 mm 0.00 in0.0 mm 0.00 in0.0 mm
06:20 AM 13.5°F-10.3°C 11.1°F-11.6°C 90% Calm Calm -- 30.56 in1034.9 mb 0.00 in0.0 mm 0.00 in0.0 mm 0.00 in0.0 mm
06:22 AM 13.5°F-10.3°C 11.1°F-11.6°C 90% Calm Calm -- 30.56 in1034.9 mb 0.00 in0.0 mm 0.00 in0.0 mm 0.00 in0.0 mm
06:24 AM 13.5°F-10.3°C 11.1°F-11.6°C 90% Calm Calm -- 30.56 in1034.9 mb 0.00 in0.0 mm 0.00 in0.0 mm 0.00 in0.0 mm
06:26 AM 13.5°F-10.3°C 11.1°F-11.6°C 90% Calm Calm -- 30.56 in1034.9 mb 0.00 in0.0 mm 0.00 in0.0 mm 0.00 in0.0 mm
06:28 AM 13.4°F-10.3°C 11.0°F-11.7°C 90% Calm Calm -- 30.56 in1034.9 mb 0.00 in0.0 mm 0.00 in0.0 mm 0.00 in0.0 mm
06:30 AM 13.4°F-10.3°C 11.0°F-11.7°C 90% Calm Calm -- 30.56 in1034.9 mb 0.00 in0.0 mm 0.00 in0.0 mm 0.00 in0.0 mm
06:32 AM 13.4°F-10.3°C 11.0°F-11.7°C 90% Calm Calm -- 30.56 in1034.9 mb 0.00 in0.0 mm 0.00 in0.0 mm 0.00 in0.0 mm
06:34 AM 13.4°F-10.3°C 11.0°F-11.7°C 90% Calm Calm -- 30.55 in1034.5 mb 0.00 in0.0 mm 0.00 in0.0 mm 0.00 in0.0 mm
06:36 AM 13.4°F-10.3°C 11.0°F-11.7°C 90% Calm Calm -- 30.55 in1034.5 mb 0.00 in0.0 mm 0.00 in0.0 mm 0.00 in0.0 mm
06:38 AM 13.4°F-10.3°C 11.3°F-11.5°C 91% Calm Calm -- 30.56 in1034.9 mb 0.00 in0.0 mm 0.00 in0.0 mm 0.00 in0.0 mm
06:40 AM 13.4°F-10.3°C 11.3°F-11.5°C 91% Calm Calm -- 30.56 in1034.9 mb 0.00 in0.0 mm 0.00 in0.0 mm 0.00 in0.0 mm
06:42 AM 13.4°F-10.3°C 11.3°F-11.5°C 91% Calm Calm -- 30.55 in1034.5 mb 0.00 in0.0 mm 0.00 in0.0 mm 0.00 in0.0 mm
06:44 AM 13.5°F-10.3°C 11.4°F-11.4°C 91% Calm Calm -- 30.55 in1034.5 mb 0.00 in0.0 mm 0.00 in0.0 mm 0.00 in0.0 mm
06:46 AM 13.5°F-10.3°C 11.4°F-11.4°C 91% Calm Calm -- 30.56 in1034.9 mb 0.00 in0.0 mm 0.00 in0.0 mm 0.00 in0.0 mm
06:48 AM 13.5°F-10.3°C 11.4°F-11.4°C 91% Calm Calm -- 30.56 in1034.9 mb 0.00 in0.0 mm 0.00 in0.0 mm 0.00 in0.0 mm
06:50 AM 13.6°F-10.2°C 11.5°F-11.4°C 91% Calm Calm -- 30.55 in1034.5 mb 0.00 in0.0 mm 0.00 in0.0 mm 0.00 in0.0 mm
06:52 AM 13.6°F-10.2°C 11.5°F-11.4°C 91% Calm Calm -- 30.55 in1034.5 mb 0.00 in0.0 mm 0.00 in0.0 mm 0.00 in0.0 mm
06:54 AM 13.7°F-10.2°C 11.6°F-11.3°C 91% Calm Calm -- 30.55 in1034.5 mb 0.00 in0.0 mm 0.00 in0.0 mm 0.00 in0.0 mm
06:56 AM 13.7°F-10.2°C 11.6°F-11.3°C 91% Calm Calm 1.0 mph1.6 kmh 30.55 in1034.5 mb 0.00 in0.0 mm 0.00 in0.0 mm 0.00 in0.0 mm
06:58 AM 13.8°F-10.1°C 11.7°F-11.3°C 91% Calm Calm 1.0 mph1.6 kmh 30.55 in1034.5 mb 0.00 in0.0 mm 0.00 in0.0 mm 0.00 in0.0 mm
07:00 AM 13.9°F-10.1°C 11.8°F-11.2°C 91% Calm Calm 1.0 mph1.6 kmh 30.55 in1034.5 mb 0.00 in0.0 mm 0.00 in0.0 mm 0.00 in0.0 mm
07:02 AM 14.0°F-10.0°C 12.1°F-11.1°C 92% Calm Calm 1.0 mph1.6 kmh 30.55 in1034.5 mb 0.00 in0.0 mm 0.00 in0.0 mm 0.00 in0.0 mm
07:04 AM 14.1°F-9.9°C 12.2°F-11.0°C 92% Calm Calm 1.0 mph1.6 kmh 30.55 in1034.5 mb 0.00 in0.0 mm 0.00 in0.0 mm 0.00 in0.0 mm
07:06 AM 14.1°F-9.9°C 12.2°F-11.0°C 92% Calm Calm 1.0 mph1.6 kmh 30.55 in1034.5 mb 0.00 in0.0 mm 0.00 in0.0 mm 0.00 in0.0 mm
07:08 AM 14.2°F-9.9°C 12.3°F-10.9°C 92% Calm Calm 1.0 mph1.6 kmh 30.55 in1034.5 mb 0.00 in0.0 mm 0.00 in0.0 mm 0.00 in0.0 mm
07:10 AM 14.3°F-9.8°C 12.4°F-10.9°C 92% Calm Calm 1.0 mph1.6 kmh 30.55 in1034.5 mb 0.00 in0.0 mm 0.00 in0.0 mm 0.00 in0.0 mm
07:12 AM 14.5°F-9.7°C 12.6°F-10.8°C 92% Calm Calm 1.0 mph1.6 kmh 30.55 in1034.5 mb 0.00 in0.0 mm 0.00 in0.0 mm 0.00 in0.0 mm
07:14 AM 14.6°F-9.7°C 12.7°F-10.7°C 92% Calm Calm 1.0 mph1.6 kmh 30.55 in1034.5 mb 0.00 in0.0 mm 0.00 in0.0 mm 0.00 in0.0 mm
07:16 AM 14.7°F-9.6°C 12.8°F-10.7°C 92% Calm Calm 1.0 mph1.6 kmh 30.56 in1034.9 mb 0.00 in0.0 mm 0.00 in0.0 mm 0.00 in0.0 mm
07:18 AM 14.9°F-9.5°C 13.0°F-10.6°C 92% Calm Calm 1.0 mph1.6 kmh 30.56 in1034.9 mb 0.00 in0.0 mm 0.00 in0.0 mm 0.00 in0.0 mm
07:20 AM 15.0°F-9.4°C 13.1°F-10.5°C 92% Calm Calm 1.0 mph1.6 kmh 30.56 in1034.9 mb 0.00 in0.0 mm 0.00 in0.0 mm 0.00 in0.0 mm
07:22 AM 15.2°F-9.3°C 13.3°F-10.4°C 92% Calm Calm 1.0 mph1.6 kmh 30.56 in1034.9 mb 0.00 in0.0 mm 0.00 in0.0 mm 0.00 in0.0 mm
07:24 AM 15.3°F-9.3°C 13.4°F-10.3°C 92% Calm Calm 1.0 mph1.6 kmh 30.56 in1034.9 mb 0.00 in0.0 mm 0.00 in0.0 mm 0.00 in0.0 mm
07:26 AM 15.5°F-9.2°C 13.6°F-10.2°C 92% Calm Calm 1.0 mph1.6 kmh 30.55 in1034.5 mb 0.00 in0.0 mm 0.00 in0.0 mm 0.00 in0.0 mm
07:28 AM 15.7°F-9.1°C 13.8°F-10.1°C 92% Calm Calm 1.0 mph1.6 kmh 30.55 in1034.5 mb 0.00 in0.0 mm 0.00 in0.0 mm 0.00 in0.0 mm
07:30 AM 15.8°F-9.0°C 14.1°F-9.9°C 93% Calm Calm 2.0 mph3.2 kmh 30.55 in1034.5 mb 0.00 in0.0 mm 0.00 in0.0 mm 0.00 in0.0 mm
07:32 AM 16.1°F-8.8°C 14.4°F-9.8°C 93% Calm Calm 2.0 mph3.2 kmh 30.55 in1034.5 mb 0.00 in0.0 mm 0.00 in0.0 mm 0.00 in0.0 mm
07:34 AM 16.2°F-8.8°C 14.5°F-9.7°C 93% Calm Calm 3.0 mph4.8 kmh 30.55 in1034.5 mb 0.00 in0.0 mm 0.00 in0.0 mm 0.00 in0.0 mm
07:36 AM 16.4°F-8.7°C 14.7°F-9.6°C 93% 1.0 mph NW1.6 kmh NW 3.0 mph4.8 kmh 30.55 in1034.5 mb 0.00 in0.0 mm 0.00 in0.0 mm 0.00 in0.0 mm
07:38 AM 16.6°F-8.6°C 14.9°F-9.5°C 93% 1.0 mph NW1.6 kmh NW 3.0 mph4.8 kmh 30.55 in1034.5 mb 0.00 in0.0 mm 0.00 in0.0 mm 0.00 in0.0 mm
07:40 AM 16.8°F-8.4°C 15.1°F-9.4°C 93% 1.0 mph NW1.6 kmh NW 3.0 mph4.8 kmh 30.55 in1034.5 mb 0.00 in0.0 mm 0.00 in0.0 mm 0.00 in0.0 mm
07:42 AM 17.1°F-8.3°C 15.2°F-9.3°C 92% 1.0 mph NW1.6 kmh NW 3.0 mph4.8 kmh 30.55 in1034.5 mb 0.00 in0.0 mm 0.00 in0.0 mm 0.00 in0.0 mm
07:44 AM 17.2°F-8.2°C 15.3°F-9.3°C 92% 1.0 mph NW1.6 kmh NW 3.0 mph4.8 kmh 30.55 in1034.5 mb 0.00 in0.0 mm 0.00 in0.0 mm 0.00 in0.0 mm
07:46 AM 17.4°F-8.1°C 15.5°F-9.2°C 92% 1.0 mph NW1.6 kmh NW 3.0 mph4.8 kmh 30.55 in1034.5 mb 0.00 in0.0 mm 0.00 in0.0 mm 0.00 in0.0 mm
07:48 AM 17.6°F-8.0°C 15.7°F-9.1°C 92% 1.0 mph NW1.6 kmh NW 3.0 mph4.8 kmh 30.55 in1034.5 mb 0.00 in0.0 mm 0.00 in0.0 mm 0.00 in0.0 mm
07:50 AM 17.8°F-7.9°C 15.9°F-8.9°C 92% 1.0 mph NW1.6 kmh NW 5.0 mph8.0 kmh 30.55 in1034.5 mb 0.00 in0.0 mm 0.00 in0.0 mm 0.00 in0.0 mm
07:52 AM 18.0°F-7.8°C 16.1°F-8.8°C 92% 1.0 mph NW1.6 kmh NW 5.0 mph8.0 kmh 30.55 in1034.5 mb 0.00 in0.0 mm 0.00 in0.0 mm 0.00 in0.0 mm
07:54 AM 18.1°F-7.7°C 16.2°F-8.8°C 92% 1.0 mph NW1.6 kmh NW 5.0 mph8.0 kmh 30.55 in1034.5 mb 0.00 in0.0 mm 0.00 in0.0 mm 0.00 in0.0 mm
07:56 AM 18.3°F-7.6°C 16.4°F-8.7°C 92% 2.0 mph NW3.2 kmh NW 5.0 mph8.0 kmh 30.55 in1034.5 mb 0.00 in0.0 mm 0.00 in0.0 mm 0.00 in0.0 mm
07:58 AM 18.4°F-7.6°C 16.2°F-8.8°C 91% 2.0 mph NW3.2 kmh NW 5.0 mph8.0 kmh 30.56 in1034.9 mb 0.00 in0.0 mm 0.00 in0.0 mm 0.00 in0.0 mm
08:00 AM 18.5°F-7.5°C 16.3°F-8.7°C 91% 2.0 mph WNW3.2 kmh WNW 4.0 mph6.4 kmh 30.56 in1034.9 mb 0.00 in0.0 mm 0.00 in0.0 mm 0.00 in0.0 mm
08:02 AM 18.6°F-7.4°C 16.4°F-8.7°C 91% 1.0 mph WNW1.6 kmh WNW 4.0 mph6.4 kmh 30.56 in1034.9 mb 0.00 in0.0 mm 0.00 in0.0 mm 0.00 in0.0 mm
08:04 AM 18.8°F-7.3°C 16.4°F-8.7°C 90% 1.0 mph WNW1.6 kmh WNW 3.0 mph4.8 kmh 30.56 in1034.9 mb 0.00 in0.0 mm 0.00 in0.0 mm 0.00 in0.0 mm
08:06 AM 18.8°F-7.3°C 16.4°F-8.7°C 90% 1.0 mph WNW1.6 kmh WNW 3.0 mph4.8 kmh 30.56 in1034.9 mb 0.00 in0.0 mm 0.00 in0.0 mm 0.00 in0.0 mm
08:08 AM 18.9°F-7.3°C 16.5°F-8.6°C 90% 1.0 mph WNW1.6 kmh WNW 3.0 mph4.8 kmh 30.56 in1034.9 mb 0.00 in0.0 mm 0.00 in0.0 mm 0.00 in0.0 mm
08:10 AM 19.0°F-7.2°C 16.6°F-8.6°C 90% 1.0 mph WNW1.6 kmh WNW 3.0 mph4.8 kmh 30.56 in1034.9 mb 0.00 in0.0 mm 0.00 in0.0 mm 0.00 in0.0 mm
08:12 AM 19.1°F-7.2°C 16.7°F-8.5°C 90% 1.0 mph WNW1.6 kmh WNW 3.0 mph4.8 kmh 30.56 in1034.9 mb 0.00 in0.0 mm 0.00 in0.0 mm 0.00 in0.0 mm
08:14 AM 19.1°F-7.2°C 16.4°F-8.7°C 89% 1.0 mph WNW1.6 kmh WNW 3.0 mph4.8 kmh 30.56 in1034.9 mb 0.00 in0.0 mm 0.00 in0.0 mm 0.00 in0.0 mm
08:16 AM 19.3°F-7.1°C 16.6°F-8.6°C 89% 1.0 mph WNW1.6 kmh WNW 3.0 mph4.8 kmh 30.56 in1034.9 mb 0.00 in0.0 mm 0.00 in0.0 mm 0.00 in0.0 mm
08:18 AM 19.3°F-7.1°C 16.6°F-8.6°C 89% 1.0 mph WNW1.6 kmh WNW 3.0 mph4.8 kmh 30.56 in1034.9 mb 0.00 in0.0 mm 0.00 in0.0 mm 0.00 in0.0 mm
08:20 AM 19.4°F-7.0°C 16.7°F-8.5°C 89% 1.0 mph WNW1.6 kmh WNW 3.0 mph4.8 kmh 30.56 in1034.9 mb 0.00 in0.0 mm 0.00 in0.0 mm 0.00 in0.0 mm
08:22 AM 19.5°F-6.9°C 16.8°F-8.4°C 89% 1.0 mph WNW1.6 kmh WNW 3.0 mph4.8 kmh 30.56 in1034.9 mb 0.00 in0.0 mm 0.00 in0.0 mm 0.00 in0.0 mm
08:24 AM 19.6°F-6.9°C 16.9°F-8.4°C 89% 1.0 mph WNW1.6 kmh WNW 3.0 mph4.8 kmh 30.56 in1034.9 mb 0.00 in0.0 mm 0.00 in0.0 mm 0.00 in0.0 mm
08:26 AM 19.7°F-6.8°C 17.0°F-8.3°C 89% 1.0 mph WNW1.6 kmh WNW 3.0 mph4.8 kmh 30.56 in1034.9 mb 0.00 in0.0 mm 0.00 in0.0 mm 0.00 in0.0 mm
08:28 AM 19.8°F-6.8°C 16.8°F-8.4°C 88% 1.0 mph WNW1.6 kmh WNW 3.0 mph4.8 kmh 30.56 in1034.9 mb 0.00 in0.0 mm 0.00 in0.0 mm 0.00 in0.0 mm
08:30 AM 19.9°F-6.7°C 16.9°F-8.4°C 88% 1.0 mph WNW1.6 kmh WNW 3.0 mph4.8 kmh 30.56 in1034.9 mb 0.00 in0.0 mm 0.00 in0.0 mm 0.00 in0.0 mm
08:32 AM 20.0°F-6.7°C 17.0°F-8.3°C 88% 1.0 mph WNW1.6 kmh WNW 3.0 mph4.8 kmh 30.56 in1034.9 mb 0.00 in0.0 mm 0.00 in0.0 mm 0.00 in0.0 mm
08:34 AM 20.2°F-6.6°C 17.2°F-8.2°C 88% 1.0 mph W1.6 kmh W 3.0 mph4.8 kmh 30.56 in1034.9 mb 0.00 in0.0 mm 0.00 in0.0 mm 0.00 in0.0 mm
08:36 AM 20.3°F-6.5°C 17.3°F-8.2°C 88% 1.0 mph W1.6 kmh W 3.0 mph4.8 kmh 30.56 in1034.9 mb 0.00 in0.0 mm 0.00 in0.0 mm 0.00 in0.0 mm
08:38 AM 20.5°F-6.4°C 17.5°F-8.1°C 88% 1.0 mph W1.6 kmh W 4.0 mph6.4 kmh 30.56 in1034.9 mb 0.00 in0.0 mm 0.00 in0.0 mm 0.00 in0.0 mm
08:40 AM 20.6°F-6.3°C 17.6°F-8.0°C 88% 2.0 mph W3.2 kmh W 4.0 mph6.4 kmh 30.56 in1034.9 mb 0.00 in0.0 mm 0.00 in0.0 mm 0.00 in0.0 mm
08:44 AM 20.8°F-6.2°C 17.8°F-7.9°C 88% 2.0 mph W3.2 kmh W 3.0 mph4.8 kmh 30.57 in1035.2 mb 0.00 in0.0 mm 0.00 in0.0 mm 0.00 in0.0 mm
08:46 AM 20.8°F-6.2°C 17.8°F-7.9°C 88% 2.0 mph W3.2 kmh W 3.0 mph4.8 kmh 30.57 in1035.2 mb 0.00 in0.0 mm 0.00 in0.0 mm 0.00 in0.0 mm
08:48 AM 21.2°F-6.0°C 17.9°F-7.8°C 87% 2.0 mph W3.2 kmh W 3.0 mph4.8 kmh 30.57 in1035.2 mb 0.00 in0.0 mm 0.00 in0.0 mm 0.00 in0.0 mm
08:50 AM 21.3°F-5.9°C 18.0°F-7.8°C 87% 2.0 mph WSW3.2 kmh WSW 6.0 mph9.7 kmh 30.57 in1035.2 mb 0.00 in0.0 mm 0.00 in0.0 mm 0.00 in0.0 mm
08:52 AM 21.5°F-5.8°C 18.2°F-7.7°C 87% 2.0 mph W3.2 kmh W 6.0 mph9.7 kmh 30.57 in1035.2 mb 0.00 in0.0 mm 0.00 in0.0 mm 0.00 in0.0 mm
08:54 AM 21.7°F-5.7°C 18.4°F-7.6°C 87% 2.0 mph WSW3.2 kmh WSW 6.0 mph9.7 kmh 30.57 in1035.2 mb 0.00 in0.0 mm 0.00 in0.0 mm 0.00 in0.0 mm
08:56 AM 21.8°F-5.7°C 18.5°F-7.5°C 87% 2.0 mph WSW3.2 kmh WSW 7.0 mph11.3 kmh 30.57 in1035.2 mb 0.00 in0.0 mm 0.00 in0.0 mm 0.00 in0.0 mm
08:58 AM 21.9°F-5.6°C 18.6°F-7.4°C 87% 3.0 mph WSW4.8 kmh WSW 7.0 mph11.3 kmh 30.57 in1035.2 mb 0.00 in0.0 mm 0.00 in0.0 mm 0.00 in0.0 mm
09:00 AM 22.0°F-5.6°C 18.5°F-7.5°C 86% 3.0 mph WSW4.8 kmh WSW 7.0 mph11.3 kmh 30.57 in1035.2 mb 0.00 in0.0 mm 0.00 in0.0 mm 0.00 in0.0 mm
09:02 AM 22.1°F-5.5°C 18.6°F-7.4°C 86% 3.0 mph WSW4.8 kmh WSW 7.0 mph11.3 kmh 30.57 in1035.2 mb 0.00 in0.0 mm 0.00 in0.0 mm 0.00 in0.0 mm
09:04 AM 22.2°F-5.4°C 18.7°F-7.4°C 86% 3.0 mph W4.8 kmh W 7.0 mph11.3 kmh 30.57 in1035.2 mb 0.00 in0.0 mm 0.00 in0.0 mm 0.00 in0.0 mm
09:06 AM 22.3°F-5.4°C 18.7°F-7.4°C 86% 3.0 mph W4.8 kmh W 7.0 mph11.3 kmh 30.57 in1035.2 mb 0.00 in0.0 mm 0.00 in0.0 mm 0.00 in0.0 mm
09:08 AM 22.5°F-5.3°C 18.9°F-7.3°C 86% 2.0 mph W3.2 kmh W 7.0 mph11.3 kmh 30.57 in1035.2 mb 0.00 in0.0 mm 0.00 in0.0 mm 0.00 in0.0 mm
09:10 AM 22.6°F-5.2°C 18.8°F-7.3°C 85% 2.0 mph W3.2 kmh W 7.0 mph11.3 kmh 30.58 in1035.6 mb 0.00 in0.0 mm 0.00 in0.0 mm 0.00 in0.0 mm
09:12 AM 22.7°F-5.2°C 18.9°F-7.3°C 85% 2.0 mph W3.2 kmh W 7.0 mph11.3 kmh 30.58 in1035.6 mb 0.00 in0.0 mm 0.00 in0.0 mm 0.00 in0.0 mm
09:14 AM 22.8°F-5.1°C 19.0°F-7.2°C 85% 2.0 mph W3.2 kmh W 7.0 mph11.3 kmh 30.58 in1035.6 mb 0.00 in0.0 mm 0.00 in0.0 mm 0.00 in0.0 mm
09:16 AM 23.0°F-5.0°C 19.2°F-7.1°C 85% 2.0 mph W3.2 kmh W 6.0 mph9.7 kmh 30.58 in1035.6 mb 0.00 in0.0 mm 0.00 in0.0 mm 0.00 in0.0 mm
09:18 AM 23.0°F-5.0°C 18.9°F-7.3°C 84% 2.0 mph W3.2 kmh W 5.0 mph8.0 kmh 30.58 in1035.6 mb 0.00 in0.0 mm 0.00 in0.0 mm 0.00 in0.0 mm
09:20 AM 23.1°F-4.9°C 18.7°F-7.4°C 83% 2.0 mph W3.2 kmh W 4.0 mph6.4 kmh 30.58 in1035.6 mb 0.00 in0.0 mm 0.00 in0.0 mm 0.00 in0.0 mm
09:22 AM 23.1°F-4.9°C 18.7°F-7.4°C 83% 2.0 mph W3.2 kmh W 4.0 mph6.4 kmh 30.58 in1035.6 mb 0.00 in0.0 mm 0.00 in0.0 mm 0.00 in0.0 mm
09:24 AM 23.3°F-4.8°C 18.9°F-7.3°C 83% 2.0 mph W3.2 kmh W 4.0 mph6.4 kmh 30.58 in1035.6 mb 0.00 in0.0 mm 0.00 in0.0 mm 0.00 in0.0 mm
09:26 AM 23.4°F-4.8°C 19.0°F-7.2°C 83% 2.0 mph W3.2 kmh W 5.0 mph8.0 kmh 30.58 in1035.6 mb 0.00 in0.0 mm 0.00 in0.0 mm 0.00 in0.0 mm
09:28 AM 23.6°F-4.7°C 19.2°F-7.1°C 83% 2.0 mph W3.2 kmh W 5.0 mph8.0 kmh 30.58 in1035.6 mb 0.00 in0.0 mm 0.00 in0.0 mm 0.00 in0.0 mm
09:30 AM 23.8°F-4.6°C 19.4°F-7.0°C 83% 2.0 mph W3.2 kmh W 5.0 mph8.0 kmh 30.58 in1035.6 mb 0.00 in0.0 mm 0.00 in0.0 mm 0.00 in0.0 mm
09:32 AM 23.9°F-4.5°C 19.5°F-6.9°C 83% 2.0 mph WSW3.2 kmh WSW 5.0 mph8.0 kmh 30.58 in1035.6 mb 0.00 in0.0 mm 0.00 in0.0 mm 0.00 in0.0 mm
09:34 AM 24.0°F-4.4°C 19.3°F-7.1°C 82% 2.0 mph WSW3.2 kmh WSW 5.0 mph8.0 kmh 30.58 in1035.6 mb 0.00 in0.0 mm 0.00 in0.0 mm 0.00 in0.0 mm
09:36 AM 24.1°F-4.4°C 19.4°F-7.0°C 82% 2.0 mph WSW3.2 kmh WSW 4.0 mph6.4 kmh 30.58 in1035.6 mb 0.00 in0.0 mm 0.00 in0.0 mm 0.00 in0.0 mm
09:38 AM 24.3°F-4.3°C 19.3°F-7.1°C 81% 2.0 mph WSW3.2 kmh WSW 4.0 mph6.4 kmh 30.58 in1035.6 mb 0.00 in0.0 mm 0.00 in0.0 mm 0.00 in0.0 mm
09:40 AM 24.4°F-4.2°C 19.4°F-7.0°C 81% 2.0 mph WSW3.2 kmh WSW 4.0 mph6.4 kmh 30.58 in1035.6 mb 0.00 in0.0 mm 0.00 in0.0 mm 0.00 in0.0 mm
09:42 AM 24.5°F-4.2°C 19.2°F-7.1°C 80% 2.0 mph WSW3.2 kmh WSW 4.0 mph6.4 kmh 30.58 in1035.6 mb 0.00 in0.0 mm 0.00 in0.0 mm 0.00 in0.0 mm
09:44 AM 24.6°F-4.1°C 19.3°F-7.1°C 80% 2.0 mph WSW3.2 kmh WSW 7.0 mph11.3 kmh 30.58 in1035.6 mb 0.00 in0.0 mm 0.00 in0.0 mm 0.00 in0.0 mm
09:46 AM 24.7°F-4.1°C 19.4°F-7.0°C 80% 2.0 mph WSW3.2 kmh WSW 7.0 mph11.3 kmh 30.58 in1035.6 mb 0.00 in0.0 mm 0.00 in0.0 mm 0.00 in0.0 mm
09:48 AM 24.8°F-4.0°C 19.2°F-7.1°C 79% 3.0 mph WSW4.8 kmh WSW 7.0 mph11.3 kmh 30.58 in1035.6 mb 0.00 in0.0 mm 0.00 in0.0 mm 0.00 in0.0 mm
09:50 AM 25.0°F-3.9°C 19.4°F-7.0°C 79% 3.0 mph WSW4.8 kmh WSW 7.0 mph11.3 kmh 30.58 in1035.6 mb 0.00 in0.0 mm 0.00 in0.0 mm 0.00 in0.0 mm
09:52 AM 25.1°F-3.8°C 19.5°F-6.9°C 79% 3.0 mph W4.8 kmh W 7.0 mph11.3 kmh 30.58 in1035.6 mb 0.00 in0.0 mm 0.00 in0.0 mm 0.00 in0.0 mm
09:54 AM 25.3°F-3.7°C 19.4°F-7.0°C 78% 3.0 mph W4.8 kmh W 6.0 mph9.7 kmh 30.58 in1035.6 mb 0.00 in0.0 mm 0.00 in0.0 mm 0.00 in0.0 mm
09:56 AM 25.4°F-3.7°C 19.5°F-6.9°C 78% 2.0 mph W3.2 kmh W 7.0 mph11.3 kmh 30.58 in1035.6 mb 0.00 in0.0 mm 0.00 in0.0 mm 0.00 in0.0 mm
09:58 AM 25.6°F-3.6°C 19.4°F-7.0°C 77% 2.0 mph W3.2 kmh W 7.0 mph11.3 kmh 30.58 in1035.6 mb 0.00 in0.0 mm 0.00 in0.0 mm 0.00 in0.0 mm
10:00 AM 25.7°F-3.5°C 19.5°F-6.9°C 77% 2.0 mph W3.2 kmh W 7.0 mph11.3 kmh 30.58 in1035.6 mb 0.00 in0.0 mm 0.00 in0.0 mm 0.00 in0.0 mm
10:02 AM 25.8°F-3.4°C 19.3°F-7.1°C 76% 3.0 mph WSW4.8 kmh WSW 7.0 mph11.3 kmh 30.58 in1035.6 mb 0.00 in0.0 mm 0.00 in0.0 mm 0.00 in0.0 mm
10:04 AM 26.0°F-3.3°C 19.5°F-6.9°C 76% 3.0 mph WSW4.8 kmh WSW 7.0 mph11.3 kmh 30.58 in1035.6 mb 0.00 in0.0 mm 0.00 in0.0 mm 0.00 in0.0 mm
10:06 AM 26.1°F-3.3°C 19.6°F-6.9°C 76% 3.0 mph WSW4.8 kmh WSW 7.0 mph11.3 kmh 30.58 in1035.6 mb 0.00 in0.0 mm 0.00 in0.0 mm 0.00 in0.0 mm
10:08 AM 26.3°F-3.2°C 19.8°F-6.8°C 76% 3.0 mph WSW4.8 kmh WSW 7.0 mph11.3 kmh 30.58 in1035.6 mb 0.00 in0.0 mm 0.00 in0.0 mm 0.00 in0.0 mm
10:10 AM 26.5°F-3.1°C 20.0°F-6.7°C 76% 3.0 mph WSW4.8 kmh WSW 6.0 mph9.7 kmh 30.58 in1035.6 mb 0.00 in0.0 mm 0.00 in0.0 mm 0.00 in0.0 mm
10:12 AM 26.6°F-3.0°C 19.7°F-6.8°C 75% 3.0 mph W4.8 kmh W 7.0 mph11.3 kmh 30.58 in1035.6 mb 0.00 in0.0 mm 0.00 in0.0 mm 0.00 in0.0 mm
10:14 AM 26.8°F-2.9°C 19.9°F-6.7°C 75% 3.0 mph WSW4.8 kmh WSW 7.0 mph11.3 kmh 30.58 in1035.6 mb 0.00 in0.0 mm 0.00 in0.0 mm 0.00 in0.0 mm
10:16 AM 27.0°F-2.8°C 19.8°F-6.8°C 74% 3.0 mph WSW4.8 kmh WSW 9.0 mph14.5 kmh 30.58 in1035.6 mb 0.00 in0.0 mm 0.00 in0.0 mm 0.00 in0.0 mm
10:18 AM 27.2°F-2.7°C 20.0°F-6.7°C 74% 3.0 mph WSW4.8 kmh WSW 9.0 mph14.5 kmh 30.58 in1035.6 mb 0.00 in0.0 mm 0.00 in0.0 mm 0.00 in0.0 mm
10:20 AM 27.4°F-2.6°C 19.9°F-6.7°C 73% 4.0 mph WSW6.4 kmh WSW 9.0 mph14.5 kmh 30.58 in1035.6 mb 0.00 in0.0 mm 0.00 in0.0 mm 0.00 in0.0 mm
10:22 AM 27.5°F-2.5°C 20.0°F-6.7°C 73% 4.0 mph WSW6.4 kmh WSW 9.0 mph14.5 kmh 30.58 in1035.6 mb 0.00 in0.0 mm 0.00 in0.0 mm 0.00 in0.0 mm
10:24 AM 27.8°F-2.3°C 20.3°F-6.5°C 73% 4.0 mph WSW6.4 kmh WSW 9.0 mph14.5 kmh 30.58 in1035.6 mb 0.00 in0.0 mm 0.00 in0.0 mm 0.00 in0.0 mm
10:26 AM 28.0°F-2.2°C 20.5°F-6.4°C 73% 4.0 mph WSW6.4 kmh WSW 8.0 mph12.9 kmh 30.58 in1035.6 mb 0.00 in0.0 mm 0.00 in0.0 mm 0.00 in0.0 mm
10:28 AM 28.3°F-2.1°C 20.7°F-6.3°C 73% 3.0 mph WSW4.8 kmh WSW 8.0 mph12.9 kmh 30.58 in1035.6 mb 0.00 in0.0 mm 0.00 in0.0 mm 0.00 in0.0 mm
10:30 AM 28.6°F-1.9°C 20.7°F-6.3°C 72% 3.0 mph WSW4.8 kmh WSW 8.0 mph12.9 kmh 30.58 in1035.6 mb 0.00 in0.0 mm 0.00 in0.0 mm 0.00 in0.0 mm
10:32 AM 28.8°F-1.8°C 20.6°F-6.3°C 71% 3.0 mph WSW4.8 kmh WSW 8.0 mph12.9 kmh 30.57 in1035.2 mb 0.00 in0.0 mm 0.00 in0.0 mm 0.00 in0.0 mm
10:34 AM 29.0°F-1.7°C 20.4°F-6.4°C 70% 3.0 mph WSW4.8 kmh WSW 8.0 mph12.9 kmh 30.58 in1035.6 mb 0.00 in0.0 mm 0.00 in0.0 mm 0.00 in0.0 mm
10:36 AM 29.3°F-1.5°C 20.7°F-6.3°C 70% 3.0 mph WSW4.8 kmh WSW 9.0 mph14.5 kmh 30.57 in1035.2 mb 0.00 in0.0 mm 0.00 in0.0 mm 0.00 in0.0 mm
10:38 AM 29.5°F-1.4°C 20.6°F-6.3°C 69% 4.0 mph WSW6.4 kmh WSW 9.0 mph14.5 kmh 30.57 in1035.2 mb 0.00 in0.0 mm 0.00 in0.0 mm 0.00 in0.0 mm
10:40 AM 29.6°F-1.3°C 20.3°F-6.5°C 68% 4.0 mph WSW6.4 kmh WSW 9.0 mph14.5 kmh 30.57 in1035.2 mb 0.00 in0.0 mm 0.00 in0.0 mm 0.00 in0.0 mm
10:42 AM 29.8°F-1.2°C 20.2°F-6.6°C 67% 4.0 mph WSW6.4 kmh WSW 10.0 mph16.1 kmh 30.57 in1035.2 mb 0.00 in0.0 mm 0.00 in0.0 mm 0.00 in0.0 mm
10:44 AM 29.9°F-1.2°C 20.3°F-6.5°C 67% 4.0 mph WSW6.4 kmh WSW 10.0 mph16.1 kmh 30.57 in1035.2 mb 0.00 in0.0 mm 0.00 in0.0 mm 0.00 in0.0 mm
10:46 AM 30.1°F-1.1°C 20.5°F-6.4°C 67% 4.0 mph WSW6.4 kmh WSW 10.0 mph16.1 kmh 30.57 in1035.2 mb 0.00 in0.0 mm 0.00 in0.0 mm 0.00 in0.0 mm
10:48 AM 30.3°F-0.9°C 21.0°F-6.1°C 68% 4.0 mph WSW6.4 kmh WSW 10.0 mph16.1 kmh 30.57 in1035.2 mb 0.00 in0.0 mm 0.00 in0.0 mm 0.00 in0.0 mm
10:50 AM 30.5°F-0.8°C 20.8°F-6.2°C 67% 4.0 mph WSW6.4 kmh WSW 10.0 mph16.1 kmh 30.57 in1035.2 mb 0.00 in0.0 mm 0.00 in0.0 mm 0.00 in0.0 mm
10:52 AM 30.6°F-0.8°C 20.2°F-6.6°C 65% 3.0 mph WSW4.8 kmh WSW 9.0 mph14.5 kmh 30.57 in1035.2 mb 0.00 in0.0 mm 0.00 in0.0 mm 0.00 in0.0 mm
10:54 AM 30.6°F-0.8°C 20.2°F-6.6°C 65% 3.0 mph WSW4.8 kmh WSW 9.0 mph14.5 kmh 30.57 in1035.2 mb 0.00 in0.0 mm 0.00 in0.0 mm 0.00 in0.0 mm
10:56 AM 30.7°F-0.7°C 20.7°F-6.3°C 66% 3.0 mph WSW4.8 kmh WSW 9.0 mph14.5 kmh 30.57 in1035.2 mb 0.00 in0.0 mm 0.00 in0.0 mm 0.00 in0.0 mm
10:58 AM 30.7°F-0.7°C 20.7°F-6.3°C 66% 3.0 mph WSW4.8 kmh WSW 7.0 mph11.3 kmh 30.57 in1035.2 mb 0.00 in0.0 mm 0.00 in0.0 mm 0.00 in0.0 mm
11:00 AM 30.7°F-0.7°C 20.3°F-6.5°C 65% 3.0 mph WSW4.8 kmh WSW 7.0 mph11.3 kmh 30.56 in1034.9 mb 0.00 in0.0 mm 0.00 in0.0 mm 0.00 in0.0 mm
11:02 AM 30.7°F-0.7°C 20.3°F-6.5°C 65% 3.0 mph WSW4.8 kmh WSW 7.0 mph11.3 kmh 30.56 in1034.9 mb 0.00 in0.0 mm 0.00 in0.0 mm 0.00 in0.0 mm
11:04 AM 30.7°F-0.7°C 20.3°F-6.5°C 65% 3.0 mph WSW4.8 kmh WSW 8.0 mph12.9 kmh 30.56 in1034.9 mb 0.00 in0.0 mm 0.00 in0.0 mm 0.00 in0.0 mm
11:06 AM 30.7°F-0.7°C 20.3°F-6.5°C 65% 4.0 mph WSW6.4 kmh WSW 8.0 mph12.9 kmh 30.56 in1034.9 mb 0.00 in0.0 mm 0.00 in0.0 mm 0.00 in0.0 mm
11:08 AM 30.7°F-0.7°C 20.0°F-6.7°C 64% 4.0 mph WSW6.4 kmh WSW 8.0 mph12.9 kmh 30.56 in1034.9 mb 0.00 in0.0 mm 0.00 in0.0 mm 0.00 in0.0 mm
11:10 AM 30.7°F-0.7°C 20.3°F-6.5°C 65% 3.0 mph WSW4.8 kmh WSW 8.0 mph12.9 kmh 30.56 in1034.9 mb 0.00 in0.0 mm 0.00 in0.0 mm 0.00 in0.0 mm
11:12 AM 30.8°F-0.7°C 20.4°F-6.4°C 65% 4.0 mph WSW6.4 kmh WSW 8.0 mph12.9 kmh 30.56 in1034.9 mb 0.00 in0.0 mm 0.00 in0.0 mm 0.00 in0.0 mm
11:14 AM 30.9°F-0.6°C 20.9°F-6.2°C 66% 4.0 mph WSW6.4 kmh WSW 8.0 mph12.9 kmh 30.55 in1034.5 mb 0.00 in0.0 mm 0.00 in0.0 mm 0.00 in0.0 mm
11:16 AM 31.0°F-0.6°C 20.6°F-6.3°C 65% 3.0 mph WSW4.8 kmh WSW 8.0 mph12.9 kmh 30.55 in1034.5 mb 0.00 in0.0 mm 0.00 in0.0 mm 0.00 in0.0 mm
11:18 AM 31.2°F-0.4°C 20.8°F-6.2°C 65% 3.0 mph WSW4.8 kmh WSW 8.0 mph12.9 kmh 30.55 in1034.5 mb 0.00 in0.0 mm 0.00 in0.0 mm 0.00 in0.0 mm
11:20 AM 31.2°F-0.4°C 20.4°F-6.4°C 64% 3.0 mph WSW4.8 kmh WSW 8.0 mph12.9 kmh 30.55 in1034.5 mb 0.00 in0.0 mm 0.00 in0.0 mm 0.00 in0.0 mm
11:22 AM 31.2°F-0.4°C 20.1°F-6.6°C 63% 3.0 mph WSW4.8 kmh WSW 8.0 mph12.9 kmh 30.55 in1034.5 mb 0.00 in0.0 mm 0.00 in0.0 mm 0.00 in0.0 mm
11:24 AM 31.2°F-0.4°C 20.1°F-6.6°C 63% 3.0 mph WSW4.8 kmh WSW 8.0 mph12.9 kmh 30.55 in1034.5 mb 0.00 in0.0 mm 0.00 in0.0 mm 0.00 in0.0 mm
11:26 AM 31.3°F-0.4°C 20.5°F-6.4°C 64% 3.0 mph WSW4.8 kmh WSW 8.0 mph12.9 kmh 30.55 in1034.5 mb 0.00 in0.0 mm 0.00 in0.0 mm 0.00 in0.0 mm
11:28 AM 31.3°F-0.4°C 20.5°F-6.4°C 64% 4.0 mph WSW6.4 kmh WSW 8.0 mph12.9 kmh 30.55 in1034.5 mb 0.00 in0.0 mm 0.00 in0.0 mm 0.00 in0.0 mm
11:30 AM 31.4°F-0.3°C 20.2°F-6.6°C 63% 4.0 mph SW6.4 kmh SW 8.0 mph12.9 kmh 30.55 in1034.5 mb 0.00 in0.0 mm 0.00 in0.0 mm 0.00 in0.0 mm
11:32 AM 31.4°F-0.3°C 20.6°F-6.3°C 64% 4.0 mph SW6.4 kmh SW 8.0 mph12.9 kmh 30.55 in1034.5 mb 0.00 in0.0 mm 0.00 in0.0 mm 0.00 in0.0 mm
11:34 AM 31.4°F-0.3°C 20.2°F-6.6°C 63% 4.0 mph SW6.4 kmh SW 8.0 mph12.9 kmh 30.55 in1034.5 mb 0.00 in0.0 mm 0.00 in0.0 mm 0.00 in0.0 mm
11:36 AM 31.4°F-0.3°C 20.2°F-6.6°C 63% 3.0 mph SW4.8 kmh SW 8.0 mph12.9 kmh 30.54 in1034.2 mb 0.00 in0.0 mm 0.00 in0.0 mm 0.00 in0.0 mm
11:38 AM 31.5°F-0.3°C 20.3°F-6.5°C 63% 4.0 mph SW6.4 kmh SW 8.0 mph12.9 kmh 30.54 in1034.2 mb 0.00 in0.0 mm 0.00 in0.0 mm 0.00 in0.0 mm
11:40 AM 31.5°F-0.3°C 20.0°F-6.7°C 62% 3.0 mph SW4.8 kmh SW 8.0 mph12.9 kmh 30.54 in1034.2 mb 0.00 in0.0 mm 0.00 in0.0 mm 0.00 in0.0 mm
11:42 AM 31.6°F-0.2°C 20.1°F-6.6°C 62% 3.0 mph SW4.8 kmh SW 9.0 mph14.5 kmh 30.54 in1034.2 mb 0.00 in0.0 mm 0.00 in0.0 mm 0.00 in0.0 mm
11:44 AM 31.6°F-0.2°C 19.7°F-6.8°C 61% 3.0 mph SW4.8 kmh SW 9.0 mph14.5 kmh 30.54 in1034.2 mb 0.00 in0.0 mm 0.00 in0.0 mm 0.00 in0.0 mm
11:46 AM 31.6°F-0.2°C 19.7°F-6.8°C 61% 4.0 mph SW6.4 kmh SW 9.0 mph14.5 kmh 30.54 in1034.2 mb 0.00 in0.0 mm 0.00 in0.0 mm 0.00 in0.0 mm
11:48 AM 31.6°F-0.2°C 19.3°F-7.1°C 60% 3.0 mph SW4.8 kmh SW 9.0 mph14.5 kmh 30.53 in1033.9 mb 0.00 in0.0 mm 0.00 in0.0 mm 0.00 in0.0 mm
11:50 AM 31.5°F-0.3°C 19.2°F-7.1°C 60% 4.0 mph SW6.4 kmh SW 10.0 mph16.1 kmh 30.54 in1034.2 mb 0.00 in0.0 mm 0.00 in0.0 mm 0.00 in0.0 mm
11:52 AM 31.5°F-0.3°C 19.2°F-7.1°C 60% 4.0 mph SW6.4 kmh SW 10.0 mph16.1 kmh 30.53 in1033.9 mb 0.00 in0.0 mm 0.00 in0.0 mm 0.00 in0.0 mm
11:54 AM 31.5°F-0.3°C 18.8°F-7.3°C 59% 4.0 mph SW6.4 kmh SW 10.0 mph16.1 kmh 30.53 in1033.9 mb 0.00 in0.0 mm 0.00 in0.0 mm 0.00 in0.0 mm
11:56 AM 31.6°F-0.2°C 19.3°F-7.1°C 60% 4.0 mph SW6.4 kmh SW 10.0 mph16.1 kmh 30.53 in1033.9 mb 0.00 in0.0 mm 0.00 in0.0 mm 0.00 in0.0 mm
11:58 AM 31.6°F-0.2°C 18.5°F-7.5°C 58% 4.0 mph SW6.4 kmh SW 10.0 mph16.1 kmh 30.53 in1033.9 mb 0.00 in0.0 mm 0.00 in0.0 mm 0.00 in0.0 mm
12:00 PM 31.5°F-0.3°C 17.6°F-8.0°C 56% 4.0 mph SW6.4 kmh SW 10.0 mph16.1 kmh 30.53 in1033.9 mb 0.00 in0.0 mm 0.00 in0.0 mm 0.00 in0.0 mm
12:02 PM 31.3°F-0.4°C 17.4°F-8.1°C 56% 4.0 mph SW6.4 kmh SW 10.0 mph16.1 kmh 30.53 in1033.9 mb 0.00 in0.0 mm 0.00 in0.0 mm 0.00 in0.0 mm
12:04 PM 31.3°F-0.4°C 17.8°F-7.9°C 57% 4.0 mph SSW6.4 kmh SSW 10.0 mph16.1 kmh 30.53 in1033.9 mb 0.00 in0.0 mm 0.00 in0.0 mm 0.00 in0.0 mm
12:06 PM 31.3°F-0.4°C 17.4°F-8.1°C 56% 5.0 mph SSW8.0 kmh SSW 10.0 mph16.1 kmh 30.53 in1033.9 mb 0.00 in0.0 mm 0.00 in0.0 mm 0.00 in0.0 mm
12:08 PM 31.2°F-0.4°C 16.9°F-8.4°C 55% 4.0 mph SSW6.4 kmh SSW 10.0 mph16.1 kmh 30.52 in1033.5 mb 0.00 in0.0 mm 0.00 in0.0 mm 0.00 in0.0 mm
12:10 PM 31.3°F-0.4°C 17.0°F-8.3°C 55% 4.0 mph SSW6.4 kmh SSW 9.0 mph14.5 kmh 30.53 in1033.9 mb 0.00 in0.0 mm 0.00 in0.0 mm 0.00 in0.0 mm
12:12 PM 31.4°F-0.3°C 16.7°F-8.5°C 54% 4.0 mph SW6.4 kmh SW 9.0 mph14.5 kmh 30.52 in1033.5 mb 0.00 in0.0 mm 0.00 in0.0 mm 0.00 in0.0 mm
12:14 PM 31.5°F-0.3°C 16.7°F-8.5°C 54% 4.0 mph SW6.4 kmh SW 9.0 mph14.5 kmh 30.52 in1033.5 mb 0.00 in0.0 mm 0.00 in0.0 mm 0.00 in0.0 mm
12:16 PM 31.6°F-0.2°C 16.4°F-8.7°C 53% 4.0 mph SW6.4 kmh SW 8.0 mph12.9 kmh 30.52 in1033.5 mb 0.00 in0.0 mm 0.00 in0.0 mm 0.00 in0.0 mm
12:18 PM 31.7°F-0.2°C 16.5°F-8.6°C 53% 4.0 mph SW6.4 kmh SW 8.0 mph12.9 kmh 30.52 in1033.5 mb 0.00 in0.0 mm 0.00 in0.0 mm 0.00 in0.0 mm
12:20 PM 31.8°F-0.1°C 16.6°F-8.6°C 53% 3.0 mph SW4.8 kmh SW 8.0 mph12.9 kmh 30.52 in1033.5 mb 0.00 in0.0 mm 0.00 in0.0 mm 0.00 in0.0 mm
12:22 PM 32.0°F0.0°C 16.3°F-8.7°C 52% 4.0 mph SW6.4 kmh SW 9.0 mph14.5 kmh 30.52 in1033.5 mb 0.00 in0.0 mm 0.00 in0.0 mm 0.00 in0.0 mm
12:24 PM 32.1°F0.1°C 16.0°F-8.9°C 51% 3.0 mph SW4.8 kmh SW 9.0 mph14.5 kmh 30.52 in1033.5 mb 0.00 in0.0 mm 0.00 in0.0 mm 0.00 in0.0 mm
12:26 PM 32.2°F0.1°C 16.5°F-8.6°C 52% 4.0 mph SSW6.4 kmh SSW 9.0 mph14.5 kmh 30.52 in1033.5 mb 0.00 in0.0 mm 0.00 in0.0 mm 0.00 in0.0 mm
12:28 PM 32.1°F0.1°C 16.4°F-8.7°C 52% 4.0 mph SSW6.4 kmh SSW 12.0 mph19.3 kmh 30.52 in1033.5 mb 0.00 in0.0 mm 0.00 in0.0 mm 0.00 in0.0 mm
12:30 PM 32.1°F0.1°C 16.0°F-8.9°C 51% 4.0 mph SSW6.4 kmh SSW 12.0 mph19.3 kmh 30.52 in1033.5 mb 0.00 in0.0 mm 0.00 in0.0 mm 0.00 in0.0 mm
12:32 PM 32.1°F0.1°C 14.6°F-9.7°C 48% 4.0 mph SSW6.4 kmh SSW 12.0 mph19.3 kmh 30.51 in1033.2 mb 0.00 in0.0 mm 0.00 in0.0 mm 0.00 in0.0 mm
12:34 PM 31.9°F-0.1°C 14.4°F-9.8°C 48% 4.0 mph SSW6.4 kmh SSW 12.0 mph19.3 kmh 30.51 in1033.2 mb 0.00 in0.0 mm 0.00 in0.0 mm 0.00 in0.0 mm
12:36 PM 31.7°F-0.2°C 14.7°F-9.6°C 49% 4.0 mph SSW6.4 kmh SSW 12.0 mph19.3 kmh 30.51 in1033.2 mb 0.00 in0.0 mm 0.00 in0.0 mm 0.00 in0.0 mm
12:38 PM 31.7°F-0.2°C 15.2°F-9.3°C 50% 4.0 mph SW6.4 kmh SW 10.0 mph16.1 kmh 30.51 in1033.2 mb 0.00 in0.0 mm 0.00 in0.0 mm 0.00 in0.0 mm
12:40 PM 31.8°F-0.1°C 15.7°F-9.1°C 51% 4.0 mph SW6.4 kmh SW 10.0 mph16.1 kmh 30.51 in1033.2 mb 0.00 in0.0 mm 0.00 in0.0 mm 0.00 in0.0 mm
12:42 PM 31.9°F-0.1°C 15.3°F-9.3°C 50% 4.0 mph SW6.4 kmh SW 10.0 mph16.1 kmh 30.51 in1033.2 mb 0.00 in0.0 mm 0.00 in0.0 mm 0.00 in0.0 mm
12:44 PM 31.9°F-0.1°C 15.3°F-9.3°C 50% 3.0 mph WSW4.8 kmh WSW 10.0 mph16.1 kmh 30.51 in1033.2 mb 0.00 in0.0 mm 0.00 in0.0 mm 0.00 in0.0 mm
12:46 PM 31.9°F-0.1°C 14.9°F-9.5°C 49% 3.0 mph WSW4.8 kmh WSW 10.0 mph16.1 kmh 30.51 in1033.2 mb 0.00 in0.0 mm 0.00 in0.0 mm 0.00 in0.0 mm
12:48 PM 31.9°F-0.1°C 15.3°F-9.3°C 50% 3.0 mph WSW4.8 kmh WSW 7.0 mph11.3 kmh 30.51 in1033.2 mb 0.00 in0.0 mm 0.00 in0.0 mm 0.00 in0.0 mm
12:50 PM 31.9°F-0.1°C 14.9°F-9.5°C 49% 3.0 mph WSW4.8 kmh WSW 7.0 mph11.3 kmh 30.51 in1033.2 mb 0.00 in0.0 mm 0.00 in0.0 mm 0.00 in0.0 mm
12:52 PM 31.9°F-0.1°C 14.9°F-9.5°C 49% 3.0 mph SW4.8 kmh SW 7.0 mph11.3 kmh 30.51 in1033.2 mb 0.00 in0.0 mm 0.00 in0.0 mm 0.00 in0.0 mm
12:54 PM 32.0°F0.0°C 14.5°F-9.7°C 48% 3.0 mph SW4.8 kmh SW 9.0 mph14.5 kmh 30.51 in1033.2 mb 0.00 in0.0 mm 0.00 in0.0 mm 0.00 in0.0 mm
12:56 PM 32.0°F0.0°C 15.0°F-9.4°C 49% 3.0 mph SW4.8 kmh SW 9.0 mph14.5 kmh 30.51 in1033.2 mb 0.00 in0.0 mm 0.00 in0.0 mm 0.00 in0.0 mm
12:58 PM 32.0°F0.0°C 15.0°F-9.4°C 49% 4.0 mph SW6.4 kmh SW 9.0 mph14.5 kmh 30.51 in1033.2 mb 0.00 in0.0 mm 0.00 in0.0 mm 0.00 in0.0 mm
01:00 PM 32.0°F0.0°C 15.0°F-9.4°C 49% 4.0 mph SW6.4 kmh SW 9.0 mph14.5 kmh 30.51 in1033.2 mb 0.00 in0.0 mm 0.00 in0.0 mm 0.00 in0.0 mm
01:02 PM 32.1°F0.1°C 14.6°F-9.7°C 48% 4.0 mph SW6.4 kmh SW 9.0 mph14.5 kmh 30.51 in1033.2 mb 0.00 in0.0 mm 0.00 in0.0 mm 0.00 in0.0 mm
01:04 PM 32.2°F0.1°C 14.7°F-9.6°C 48% 4.0 mph SW6.4 kmh SW 9.0 mph14.5 kmh 30.51 in1033.2 mb 0.00 in0.0 mm 0.00 in0.0 mm 0.00 in0.0 mm
01:06 PM 32.3°F0.2°C 14.3°F-9.8°C 47% 4.0 mph SW6.4 kmh SW 9.0 mph14.5 kmh 30.50 in1032.8 mb 0.00 in0.0 mm 0.00 in0.0 mm 0.00 in0.0 mm
01:08 PM 32.5°F0.3°C 15.0°F-9.4°C 48% 4.0 mph SW6.4 kmh SW 9.0 mph14.5 kmh 30.50 in1032.8 mb 0.00 in0.0 mm 0.00 in0.0 mm 0.00 in0.0 mm
01:10 PM 32.6°F0.3°C 15.1°F-9.4°C 48% 3.0 mph SW4.8 kmh SW 8.0 mph12.9 kmh 30.50 in1032.8 mb 0.00 in0.0 mm 0.00 in0.0 mm 0.00 in0.0 mm
01:12 PM 32.7°F0.4°C 14.2°F-9.9°C 46% 3.0 mph SW4.8 kmh SW 7.0 mph11.3 kmh 30.49 in1032.5 mb 0.00 in0.0 mm 0.00 in0.0 mm 0.00 in0.0 mm
01:14 PM 32.7°F0.4°C 14.7°F-9.6°C 47% 3.0 mph SW4.8 kmh SW 8.0 mph12.9 kmh 30.49 in1032.5 mb 0.00 in0.0 mm 0.00 in0.0 mm 0.00 in0.0 mm
01:16 PM 32.7°F0.4°C 14.2°F-9.9°C 46% 3.0 mph SW4.8 kmh SW 8.0 mph12.9 kmh 30.49 in1032.5 mb 0.00 in0.0 mm 0.00 in0.0 mm 0.00 in0.0 mm
01:18 PM 32.6°F0.3°C 14.1°F-9.9°C 46% 3.0 mph SSW4.8 kmh SSW 8.0 mph12.9 kmh 30.49 in1032.5 mb 0.00 in0.0 mm 0.00 in0.0 mm 0.00 in0.0 mm
01:20 PM 32.6°F0.3°C 14.6°F-9.7°C 47% 3.0 mph SSW4.8 kmh SSW 8.0 mph12.9 kmh 30.49 in1032.5 mb 0.00 in0.0 mm 0.00 in0.0 mm 0.00 in0.0 mm
01:22 PM 32.6°F0.3°C 14.6°F-9.7°C 47% 3.0 mph SW4.8 kmh SW 8.0 mph12.9 kmh 30.49 in1032.5 mb 0.00 in0.0 mm 0.00 in0.0 mm 0.00 in0.0 mm
01:24 PM 32.8°F0.4°C 15.2°F-9.3°C 48% 3.0 mph SW4.8 kmh SW 8.0 mph12.9 kmh 30.49 in1032.5 mb 0.00 in0.0 mm 0.00 in0.0 mm 0.00 in0.0 mm
01:26 PM 32.8°F0.4°C 14.3°F-9.8°C 46% 3.0 mph SW4.8 kmh SW 9.0 mph14.5 kmh 30.49 in1032.5 mb 0.00 in0.0 mm 0.00 in0.0 mm 0.00 in0.0 mm
01:28 PM 32.8°F0.4°C 14.3°F-9.8°C 46% 3.0 mph SW4.8 kmh SW 9.0 mph14.5 kmh 30.49 in1032.5 mb 0.00 in0.0 mm 0.00 in0.0 mm 0.00 in0.0 mm
01:30 PM 32.8°F0.4°C 13.8°F-10.1°C 45% 3.0 mph SW4.8 kmh SW 9.0 mph14.5 kmh 30.49 in1032.5 mb 0.00 in0.0 mm 0.00 in0.0 mm 0.00 in0.0 mm
01:32 PM 32.8°F0.4°C 13.2°F-10.4°C 44% 4.0 mph SW6.4 kmh SW 9.0 mph14.5 kmh 30.49 in1032.5 mb 0.00 in0.0 mm 0.00 in0.0 mm 0.00 in0.0 mm
01:34 PM 32.8°F0.4°C 13.8°F-10.1°C 45% 4.0 mph SW6.4 kmh SW 9.0 mph14.5 kmh 30.49 in1032.5 mb 0.00 in0.0 mm 0.00 in0.0 mm 0.00 in0.0 mm
01:36 PM 32.9°F0.5°C 13.9°F-10.1°C 45% 4.0 mph SW6.4 kmh SW 9.0 mph14.5 kmh 30.49 in1032.5 mb 0.00 in0.0 mm 0.00 in0.0 mm 0.00 in0.0 mm
01:38 PM 33.0°F0.6°C 12.9°F-10.6°C 43% 4.0 mph SW6.4 kmh SW 9.0 mph14.5 kmh 30.49 in1032.5 mb 0.00 in0.0 mm 0.00 in0.0 mm 0.00 in0.0 mm
01:40 PM 33.2°F0.7°C 13.6°F-10.2°C 44% 3.0 mph SW4.8 kmh SW 9.0 mph14.5 kmh 30.49 in1032.5 mb 0.00 in0.0 mm 0.00 in0.0 mm 0.00 in0.0 mm
01:42 PM 33.4°F0.8°C 13.3°F-10.4°C 43% 3.0 mph SW4.8 kmh SW 9.0 mph14.5 kmh 30.48 in1032.2 mb 0.00 in0.0 mm 0.00 in0.0 mm 0.00 in0.0 mm
01:44 PM 33.4°F0.8°C 13.3°F-10.4°C 43% 3.0 mph SW4.8 kmh SW 9.0 mph14.5 kmh 30.48 in1032.2 mb 0.00 in0.0 mm 0.00 in0.0 mm 0.00 in0.0 mm
01:46 PM 33.3°F0.7°C 13.2°F-10.4°C 43% 3.0 mph SW4.8 kmh SW 9.0 mph14.5 kmh 30.48 in1032.2 mb 0.00 in0.0 mm 0.00 in0.0 mm 0.00 in0.0 mm
01:48 PM 33.3°F0.7°C 13.7°F-10.2°C 44% 3.0 mph SW4.8 kmh SW 9.0 mph14.5 kmh 30.48 in1032.2 mb 0.00 in0.0 mm 0.00 in0.0 mm 0.00 in0.0 mm
01:50 PM 33.3°F0.7°C 13.7°F-10.2°C 44% 3.0 mph SW4.8 kmh SW 9.0 mph14.5 kmh 30.48 in1032.2 mb 0.00 in0.0 mm 0.00 in0.0 mm 0.00 in0.0 mm
01:52 PM 33.4°F0.8°C 13.8°F-10.1°C 44% 3.0 mph SW4.8 kmh SW 9.0 mph14.5 kmh 30.48 in1032.2 mb 0.00 in0.0 mm 0.00 in0.0 mm 0.00 in0.0 mm
01:54 PM 33.4°F0.8°C 12.7°F-10.7°C 42% 3.0 mph SW4.8 kmh SW 9.0 mph14.5 kmh 30.48 in1032.2 mb 0.00 in0.0 mm 0.00 in0.0 mm 0.00 in0.0 mm
01:56 PM 33.5°F0.8°C 12.8°F-10.7°C 42% 3.0 mph SW4.8 kmh SW 9.0 mph14.5 kmh 30.48 in1032.2 mb 0.00 in0.0 mm 0.00 in0.0 mm 0.00 in0.0 mm
01:58 PM 33.5°F0.8°C 12.3°F-10.9°C 41% 3.0 mph SW4.8 kmh SW 9.0 mph14.5 kmh 30.48 in1032.2 mb 0.00 in0.0 mm 0.00 in0.0 mm 0.00 in0.0 mm
02:00 PM 33.4°F0.8°C 13.3°F-10.4°C 43% 4.0 mph SW6.4 kmh SW 9.0 mph14.5 kmh 30.48 in1032.2 mb 0.00 in0.0 mm 0.00 in0.0 mm 0.00 in0.0 mm
02:02 PM 33.4°F0.8°C 13.3°F-10.4°C 43% 4.0 mph SSW6.4 kmh SSW 8.0 mph12.9 kmh 30.48 in1032.2 mb 0.00 in0.0 mm 0.00 in0.0 mm 0.00 in0.0 mm
02:04 PM 33.2°F0.7°C 12.0°F-11.1°C 41% 4.0 mph SSW6.4 kmh SSW 8.0 mph12.9 kmh 30.47 in1031.8 mb 0.00 in0.0 mm 0.00 in0.0 mm 0.00 in0.0 mm
02:06 PM 33.0°F0.6°C 12.4°F-10.9°C 42% 4.0 mph S6.4 kmh S 8.0 mph12.9 kmh 30.47 in1031.8 mb 0.00 in0.0 mm 0.00 in0.0 mm 0.00 in0.0 mm
02:08 PM 33.0°F0.6°C 12.4°F-10.9°C 42% 3.0 mph S4.8 kmh S 8.0 mph12.9 kmh 30.47 in1031.8 mb 0.00 in0.0 mm 0.00 in0.0 mm 0.00 in0.0 mm
02:10 PM 33.0°F0.6°C 12.9°F-10.6°C 43% 3.0 mph SSW4.8 kmh SSW 7.0 mph11.3 kmh 30.47 in1031.8 mb 0.00 in0.0 mm 0.00 in0.0 mm 0.00 in0.0 mm
02:12 PM 33.2°F0.7°C 13.6°F-10.2°C 44% 3.0 mph SSW4.8 kmh SSW 7.0 mph11.3 kmh 30.48 in1032.2 mb 0.00 in0.0 mm 0.00 in0.0 mm 0.00 in0.0 mm
02:14 PM 33.3°F0.7°C 13.7°F-10.2°C 44% 3.0 mph SW4.8 kmh SW 7.0 mph11.3 kmh 30.48 in1032.2 mb 0.00 in0.0 mm 0.00 in0.0 mm 0.00 in0.0 mm
02:16 PM 33.5°F0.8°C 13.4°F-10.3°C 43% 4.0 mph SW6.4 kmh SW 8.0 mph12.9 kmh 30.48 in1032.2 mb 0.00 in0.0 mm 0.00 in0.0 mm 0.00 in0.0 mm
02:18 PM 33.6°F0.9°C 12.9°F-10.6°C 42% 3.0 mph SW4.8 kmh SW 8.0 mph12.9 kmh 30.48 in1032.2 mb 0.00 in0.0 mm 0.00 in0.0 mm 0.00 in0.0 mm
02:20 PM 33.7°F0.9°C 13.5°F-10.3°C 43% 4.0 mph SW6.4 kmh SW 9.0 mph14.5 kmh 30.48 in1032.2 mb 0.00 in0.0 mm 0.00 in0.0 mm 0.00 in0.0 mm
02:22 PM 33.8°F1.0°C 13.6°F-10.2°C 43% 4.0 mph SW6.4 kmh SW 9.0 mph14.5 kmh 30.48 in1032.2 mb 0.00 in0.0 mm 0.00 in0.0 mm 0.00 in0.0 mm
02:24 PM 33.8°F1.0°C 13.1°F-10.5°C 42% 4.0 mph SW6.4 kmh SW 9.0 mph14.5 kmh 30.48 in1032.2 mb 0.00 in0.0 mm 0.00 in0.0 mm 0.00 in0.0 mm
02:26 PM 33.8°F1.0°C 12.6°F-10.8°C 41% 4.0 mph SW6.4 kmh SW 9.0 mph14.5 kmh 30.48 in1032.2 mb 0.00 in0.0 mm 0.00 in0.0 mm 0.00 in0.0 mm
02:28 PM 33.7°F0.9°C 12.5°F-10.8°C 41% 4.0 mph SW6.4 kmh SW 9.0 mph14.5 kmh 30.48 in1032.2 mb 0.00 in0.0 mm 0.00 in0.0 mm 0.00 in0.0 mm
02:30 PM 33.6°F0.9°C 12.9°F-10.6°C 42% 4.0 mph SW6.4 kmh SW 8.0 mph12.9 kmh 30.48 in1032.2 mb 0.00 in0.0 mm 0.00 in0.0 mm 0.00 in0.0 mm
02:32 PM 33.6°F0.9°C 13.5°F-10.3°C 43% 3.0 mph SW4.8 kmh SW 8.0 mph12.9 kmh 30.48 in1032.2 mb 0.00 in0.0 mm 0.00 in0.0 mm 0.00 in0.0 mm
02:34 PM 33.5°F0.8°C 13.4°F-10.3°C 43% 3.0 mph SW4.8 kmh SW 10.0 mph16.1 kmh 30.48 in1032.2 mb 0.00 in0.0 mm 0.00 in0.0 mm 0.00 in0.0 mm
02:36 PM 33.5°F0.8°C 12.3°F-10.9°C 41% 3.0 mph SW4.8 kmh SW 10.0 mph16.1 kmh 30.48 in1032.2 mb 0.00 in0.0 mm 0.00 in0.0 mm 0.00 in0.0 mm
02:38 PM 33.3°F0.7°C 12.1°F-11.1°C 41% 3.0 mph SW4.8 kmh SW 10.0 mph16.1 kmh 30.48 in1032.2 mb 0.00 in0.0 mm 0.00 in0.0 mm 0.00 in0.0 mm
02:40 PM 33.2°F0.7°C 12.6°F-10.8°C 42% 3.0 mph SW4.8 kmh SW 10.0 mph16.1 kmh 30.48 in1032.2 mb 0.00 in0.0 mm 0.00 in0.0 mm 0.00 in0.0 mm
02:42 PM 33.0°F0.6°C 12.4°F-10.9°C 42% 3.0 mph SW4.8 kmh SW 10.0 mph16.1 kmh 30.48 in1032.2 mb 0.00 in0.0 mm 0.00 in0.0 mm 0.00 in0.0 mm
02:44 PM 32.9°F0.5°C 12.3°F-10.9°C 42% 3.0 mph SW4.8 kmh SW 10.0 mph16.1 kmh 30.48 in1032.2 mb 0.00 in0.0 mm 0.00 in0.0 mm 0.00 in0.0 mm
02:46 PM 32.8°F0.4°C 12.7°F-10.7°C 43% 2.0 mph SW3.2 kmh SW 5.0 mph8.0 kmh 30.48 in1032.2 mb 0.00 in0.0 mm 0.00 in0.0 mm 0.00 in0.0 mm
02:48 PM 32.7°F0.4°C 12.6°F-10.8°C 43% 2.0 mph SW3.2 kmh SW 6.0 mph9.7 kmh 30.48 in1032.2 mb 0.00 in0.0 mm 0.00 in0.0 mm 0.00 in0.0 mm
02:50 PM 32.7°F0.4°C 12.6°F-10.8°C 43% 2.0 mph SW3.2 kmh SW 6.0 mph9.7 kmh 30.47 in1031.8 mb 0.00 in0.0 mm 0.00 in0.0 mm 0.00 in0.0 mm
02:52 PM 32.7°F0.4°C 13.2°F-10.4°C 44% 3.0 mph SW4.8 kmh SW 7.0 mph11.3 kmh 30.47 in1031.8 mb 0.00 in0.0 mm 0.00 in0.0 mm 0.00 in0.0 mm
02:54 PM 32.7°F0.4°C 12.6°F-10.8°C 43% 3.0 mph SW4.8 kmh SW 9.0 mph14.5 kmh 30.47 in1031.8 mb 0.00 in0.0 mm 0.00 in0.0 mm 0.00 in0.0 mm
02:56 PM 32.6°F0.3°C 12.0°F-11.1°C 42% 3.0 mph SW4.8 kmh SW 9.0 mph14.5 kmh 30.46 in1031.5 mb 0.00 in0.0 mm 0.00 in0.0 mm 0.00 in0.0 mm
02:58 PM 32.4°F0.2°C 11.8°F-11.2°C 42% 3.0 mph SW4.8 kmh SW 9.0 mph14.5 kmh 30.46 in1031.5 mb 0.00 in0.0 mm 0.00 in0.0 mm 0.00 in0.0 mm
03:00 PM 32.1°F0.1°C 11.6°F-11.3°C 42% 3.0 mph SSW4.8 kmh SSW 9.0 mph14.5 kmh 30.46 in1031.5 mb 0.00 in0.0 mm 0.00 in0.0 mm 0.00 in0.0 mm
03:02 PM 32.0°F0.0°C 12.0°F-11.1°C 43% 3.0 mph SSW4.8 kmh SSW 9.0 mph14.5 kmh 30.46 in1031.5 mb 0.00 in0.0 mm 0.00 in0.0 mm 0.00 in0.0 mm
03:04 PM 31.9°F-0.1°C 11.9°F-11.2°C 43% 2.0 mph SSW3.2 kmh SSW 6.0 mph9.7 kmh 30.46 in1031.5 mb 0.00 in0.0 mm 0.00 in0.0 mm 0.00 in0.0 mm
03:06 PM 31.9°F-0.1°C 11.9°F-11.2°C 43% 3.0 mph SSW4.8 kmh SSW 6.0 mph9.7 kmh 30.46 in1031.5 mb 0.00 in0.0 mm 0.00 in0.0 mm 0.00 in0.0 mm
03:08 PM 32.0°F0.0°C 12.0°F-11.1°C 43% 3.0 mph SW4.8 kmh SW 8.0 mph12.9 kmh 30.45 in1031.2 mb 0.00 in0.0 mm 0.00 in0.0 mm 0.00 in0.0 mm
03:10 PM 32.0°F0.0°C 12.0°F-11.1°C 43% 3.0 mph SW4.8 kmh SW 8.0 mph12.9 kmh 30.46 in1031.5 mb 0.00 in0.0 mm 0.00 in0.0 mm 0.00 in0.0 mm
03:12 PM 32.0°F0.0°C 12.0°F-11.1°C 43% 3.0 mph SW4.8 kmh SW 8.0 mph12.9 kmh 30.46 in1031.5 mb 0.00 in0.0 mm 0.00 in0.0 mm 0.00 in0.0 mm
03:14 PM 32.0°F0.0°C 12.0°F-11.1°C 43% 3.0 mph SW4.8 kmh SW 8.0 mph12.9 kmh 30.46 in1031.5 mb 0.00 in0.0 mm 0.00 in0.0 mm 0.00 in0.0 mm
03:16 PM 32.0°F0.0°C 12.5°F-10.8°C 44% 3.0 mph SW4.8 kmh SW 8.0 mph12.9 kmh 30.46 in1031.5 mb 0.00 in0.0 mm 0.00 in0.0 mm 0.00 in0.0 mm
03:18 PM 32.0°F0.0°C 13.0°F-10.6°C 45% 2.0 mph SW3.2 kmh SW 6.0 mph9.7 kmh 30.45 in1031.2 mb 0.00 in0.0 mm 0.00 in0.0 mm 0.00 in0.0 mm
03:20 PM 32.0°F0.0°C 13.0°F-10.6°C 45% 2.0 mph SW3.2 kmh SW 7.0 mph11.3 kmh 30.45 in1031.2 mb 0.00 in0.0 mm 0.00 in0.0 mm 0.00 in0.0 mm
03:22 PM 32.0°F0.0°C 12.5°F-10.8°C 44% 2.0 mph SSW3.2 kmh SSW 7.0 mph11.3 kmh 30.45 in1031.2 mb 0.00 in0.0 mm 0.00 in0.0 mm 0.00 in0.0 mm
03:24 PM 32.0°F0.0°C 12.5°F-10.8°C 44% 2.0 mph SSW3.2 kmh SSW 7.0 mph11.3 kmh 30.45 in1031.2 mb 0.00 in0.0 mm 0.00 in0.0 mm 0.00 in0.0 mm
03:26 PM 32.0°F0.0°C 13.0°F-10.6°C 45% 2.0 mph SSW3.2 kmh SSW 7.0 mph11.3 kmh 30.45 in1031.2 mb 0.00 in0.0 mm 0.00 in0.0 mm 0.00 in0.0 mm
03:28 PM 32.0°F0.0°C 13.0°F-10.6°C 45% 2.0 mph SW3.2 kmh SW 7.0 mph11.3 kmh 30.45 in1031.2 mb 0.00 in0.0 mm 0.00 in0.0 mm 0.00 in0.0 mm
03:30 PM 32.0°F0.0°C 13.0°F-10.6°C 45% 3.0 mph SW4.8 kmh SW 7.0 mph11.3 kmh 30.44 in1030.8 mb 0.00 in0.0 mm 0.00 in0.0 mm 0.00 in0.0 mm
03:32 PM 31.9°F-0.1°C 12.9°F-10.6°C 45% 3.0 mph SW4.8 kmh SW 7.0 mph11.3 kmh 30.44 in1030.8 mb 0.00 in0.0 mm 0.00 in0.0 mm 0.00 in0.0 mm
03:34 PM 31.9°F-0.1°C 12.9°F-10.6°C 45% 3.0 mph SW4.8 kmh SW 7.0 mph11.3 kmh 30.44 in1030.8 mb 0.00 in0.0 mm 0.00 in0.0 mm 0.00 in0.0 mm
03:36 PM 31.8°F-0.1°C 12.8°F-10.7°C 45% 3.0 mph SW4.8 kmh SW 7.0 mph11.3 kmh 30.44 in1030.8 mb 0.00 in0.0 mm 0.00 in0.0 mm 0.00 in0.0 mm
03:38 PM 31.7°F-0.2°C 12.2°F-11.0°C 44% 3.0 mph SW4.8 kmh SW 7.0 mph11.3 kmh 30.44 in1030.8 mb 0.00 in0.0 mm 0.00 in0.0 mm 0.00 in0.0 mm
03:40 PM 31.6°F-0.2°C 12.7°F-10.7°C 45% 3.0 mph SW4.8 kmh SW 6.0 mph9.7 kmh 30.45 in1031.2 mb 0.00 in0.0 mm 0.00 in0.0 mm 0.00 in0.0 mm
03:42 PM 31.5°F-0.3°C 13.1°F-10.5°C 46% 3.0 mph SW4.8 kmh SW 6.0 mph9.7 kmh 30.45 in1031.2 mb 0.00 in0.0 mm 0.00 in0.0 mm 0.00 in0.0 mm
03:44 PM 31.4°F-0.3°C 13.0°F-10.6°C 46% 2.0 mph SW3.2 kmh SW 6.0 mph9.7 kmh 30.45 in1031.2 mb 0.00 in0.0 mm 0.00 in0.0 mm 0.00 in0.0 mm
03:46 PM 31.4°F-0.3°C 13.0°F-10.6°C 46% 2.0 mph SW3.2 kmh SW 6.0 mph9.7 kmh 30.44 in1030.8 mb 0.00 in0.0 mm 0.00 in0.0 mm 0.00 in0.0 mm
03:48 PM 31.3°F-0.4°C 12.4°F-10.9°C 45% 2.0 mph SW3.2 kmh SW 5.0 mph8.0 kmh 30.45 in1031.2 mb 0.00 in0.0 mm 0.00 in0.0 mm 0.00 in0.0 mm
03:50 PM 31.2°F-0.4°C 13.3°F-10.4°C 47% 2.0 mph SW3.2 kmh SW 5.0 mph8.0 kmh 30.45 in1031.2 mb 0.00 in0.0 mm 0.00 in0.0 mm 0.00 in0.0 mm
03:52 PM 31.2°F-0.4°C 12.8°F-10.7°C 46% 2.0 mph SW3.2 kmh SW 4.0 mph6.4 kmh 30.44 in1030.8 mb 0.00 in0.0 mm 0.00 in0.0 mm 0.00 in0.0 mm
03:54 PM 31.0°F-0.6°C 12.6°F-10.8°C 46% 2.0 mph SSW3.2 kmh SSW 5.0 mph8.0 kmh 30.44 in1030.8 mb 0.00 in0.0 mm 0.00 in0.0 mm 0.00 in0.0 mm
03:56 PM 30.9°F-0.6°C 12.5°F-10.8°C 46% 2.0 mph SSW3.2 kmh SSW 5.0 mph8.0 kmh 30.44 in1030.8 mb 0.00 in0.0 mm 0.00 in0.0 mm 0.00 in0.0 mm
03:58 PM 30.8°F-0.7°C 12.4°F-10.9°C 46% 2.0 mph SSW3.2 kmh SSW 5.0 mph8.0 kmh 30.44 in1030.8 mb 0.00 in0.0 mm 0.00 in0.0 mm 0.00 in0.0 mm
04:00 PM 30.7°F-0.7°C 12.8°F-10.7°C 47% 2.0 mph SSW3.2 kmh SSW 5.0 mph8.0 kmh 30.44 in1030.8 mb 0.00 in0.0 mm 0.00 in0.0 mm 0.00 in0.0 mm
04:02 PM 30.6°F-0.8°C 13.2°F-10.4°C 48% 2.0 mph SSW3.2 kmh SSW 5.0 mph8.0 kmh 30.44 in1030.8 mb 0.00 in0.0 mm 0.00 in0.0 mm 0.00 in0.0 mm
04:04 PM 30.6°F-0.8°C 13.2°F-10.4°C 48% 2.0 mph SW3.2 kmh SW 4.0 mph6.4 kmh 30.44 in1030.8 mb 0.00 in0.0 mm 0.00 in0.0 mm 0.00 in0.0 mm
04:06 PM 30.5°F-0.8°C 13.1°F-10.5°C 48% 2.0 mph SW3.2 kmh SW 4.0 mph6.4 kmh 30.44 in1030.8 mb 0.00 in0.0 mm 0.00 in0.0 mm 0.00 in0.0 mm
04:08 PM 30.4°F-0.9°C 13.5°F-10.3°C 49% 2.0 mph SW3.2 kmh SW 4.0 mph6.4 kmh 30.44 in1030.8 mb 0.00 in0.0 mm 0.00 in0.0 mm 0.00 in0.0 mm
04:10 PM 30.3°F-0.9°C 13.4°F-10.3°C 49% 2.0 mph SW3.2 kmh SW 4.0 mph6.4 kmh 30.44 in1030.8 mb 0.00 in0.0 mm 0.00 in0.0 mm 0.00 in0.0 mm
04:12 PM 30.2°F-1.0°C 13.3°F-10.4°C 49% 1.0 mph SW1.6 kmh SW 3.0 mph4.8 kmh 30.44 in1030.8 mb 0.00 in0.0 mm 0.00 in0.0 mm 0.00 in0.0 mm
04:14 PM 30.1°F-1.1°C 13.7°F-10.2°C 50% 1.0 mph SW1.6 kmh SW 3.0 mph4.8 kmh 30.43 in1030.5 mb 0.00 in0.0 mm 0.00 in0.0 mm 0.00 in0.0 mm
04:16 PM 30.0°F-1.1°C 13.6°F-10.2°C 50% 1.0 mph SW1.6 kmh SW 3.0 mph4.8 kmh 30.44 in1030.8 mb 0.00 in0.0 mm 0.00 in0.0 mm 0.00 in0.0 mm
04:18 PM 29.9°F-1.2°C 13.5°F-10.3°C 50% 1.0 mph SW1.6 kmh SW 2.0 mph3.2 kmh 30.43 in1030.5 mb 0.00 in0.0 mm 0.00 in0.0 mm 0.00 in0.0 mm
04:20 PM 29.8°F-1.2°C 13.9°F-10.1°C 51% Calm Calm 2.0 mph3.2 kmh 30.43 in1030.5 mb 0.00 in0.0 mm 0.00 in0.0 mm 0.00 in0.0 mm
04:22 PM 29.7°F-1.3°C 14.2°F-9.9°C 52% Calm Calm 2.0 mph3.2 kmh 30.43 in1030.5 mb 0.00 in0.0 mm 0.00 in0.0 mm 0.00 in0.0 mm
04:24 PM 29.7°F-1.3°C 14.2°F-9.9°C 52% Calm Calm 2.0 mph3.2 kmh 30.43 in1030.5 mb 0.00 in0.0 mm 0.00 in0.0 mm 0.00 in0.0 mm
04:26 PM 29.5°F-1.4°C 14.0°F-10.0°C 52% Calm Calm 2.0 mph3.2 kmh 30.43 in1030.5 mb 0.00 in0.0 mm 0.00 in0.0 mm 0.00 in0.0 mm
04:28 PM 29.4°F-1.4°C 14.4°F-9.8°C 53% Calm Calm 1.0 mph1.6 kmh 30.43 in1030.5 mb 0.00 in0.0 mm 0.00 in0.0 mm 0.00 in0.0 mm
04:30 PM 29.3°F-1.5°C 14.7°F-9.6°C 54% Calm Calm 1.0 mph1.6 kmh 30.43 in1030.5 mb 0.00 in0.0 mm 0.00 in0.0 mm 0.00 in0.0 mm
04:32 PM 29.1°F-1.6°C 14.5°F-9.7°C 54% Calm Calm 2.0 mph3.2 kmh 30.43 in1030.5 mb 0.00 in0.0 mm 0.00 in0.0 mm 0.00 in0.0 mm
04:34 PM 28.9°F-1.7°C 13.9°F-10.1°C 53% 1.0 mph SW1.6 kmh SW 2.0 mph3.2 kmh 30.43 in1030.5 mb 0.00 in0.0 mm 0.00 in0.0 mm 0.00 in0.0 mm
04:36 PM 28.7°F-1.8°C 14.1°F-9.9°C 54% 1.0 mph SW1.6 kmh SW 3.0 mph4.8 kmh 30.43 in1030.5 mb 0.00 in0.0 mm 0.00 in0.0 mm 0.00 in0.0 mm
04:38 PM 28.6°F-1.9°C 13.6°F-10.2°C 53% 1.0 mph SW1.6 kmh SW 3.0 mph4.8 kmh 30.43 in1030.5 mb 0.00 in0.0 mm 0.00 in0.0 mm 0.00 in0.0 mm
04:40 PM 28.4°F-2.0°C 13.4°F-10.3°C 53% 2.0 mph SW3.2 kmh SW 3.0 mph4.8 kmh 30.43 in1030.5 mb 0.00 in0.0 mm 0.00 in0.0 mm 0.00 in0.0 mm
04:42 PM 28.3°F-2.1°C 13.3°F-10.4°C 53% 2.0 mph SW3.2 kmh SW 3.0 mph4.8 kmh 30.43 in1030.5 mb 0.00 in0.0 mm 0.00 in0.0 mm 0.00 in0.0 mm
04:44 PM 28.2°F-2.1°C 14.1°F-9.9°C 55% 1.0 mph SW1.6 kmh SW 3.0 mph4.8 kmh 30.43 in1030.5 mb 0.00 in0.0 mm 0.00 in0.0 mm 0.00 in0.0 mm
04:46 PM 28.1°F-2.2°C 14.0°F-10.0°C 55% 1.0 mph SW1.6 kmh SW 2.0 mph3.2 kmh 30.42 in1030.1 mb 0.00 in0.0 mm 0.00 in0.0 mm 0.00 in0.0 mm
04:48 PM 27.9°F-2.3°C 14.2°F-9.9°C 56% 1.0 mph SW1.6 kmh SW 2.0 mph3.2 kmh 30.43 in1030.5 mb 0.00 in0.0 mm 0.00 in0.0 mm 0.00 in0.0 mm
04:50 PM 27.8°F-2.3°C 14.5°F-9.7°C 57% 1.0 mph SW1.6 kmh SW 2.0 mph3.2 kmh 30.43 in1030.5 mb 0.00 in0.0 mm 0.00 in0.0 mm 0.00 in0.0 mm
04:52 PM 27.7°F-2.4°C 14.4°F-9.8°C 57% 1.0 mph SW1.6 kmh SW 2.0 mph3.2 kmh 30.42 in1030.1 mb 0.00 in0.0 mm 0.00 in0.0 mm 0.00 in0.0 mm
04:54 PM 27.6°F-2.4°C 14.3°F-9.8°C 57% 1.0 mph SW1.6 kmh SW 2.0 mph3.2 kmh 30.42 in1030.1 mb 0.00 in0.0 mm 0.00 in0.0 mm 0.00 in0.0 mm
04:56 PM 27.5°F-2.5°C 14.2°F-9.9°C 57% 1.0 mph SW1.6 kmh SW 2.0 mph3.2 kmh 30.43 in1030.5 mb 0.00 in0.0 mm 0.00 in0.0 mm 0.00 in0.0 mm
04:58 PM 27.4°F-2.6°C 14.1°F-9.9°C 57% 1.0 mph SW1.6 kmh SW 2.0 mph3.2 kmh 30.42 in1030.1 mb 0.00 in0.0 mm 0.00 in0.0 mm 0.00 in0.0 mm
05:00 PM 27.3°F-2.6°C 14.5°F-9.7°C 58% 1.0 mph SW1.6 kmh SW 2.0 mph3.2 kmh 30.42 in1030.1 mb 0.00 in0.0 mm 0.00 in0.0 mm 0.00 in0.0 mm
05:02 PM 27.3°F-2.6°C 14.5°F-9.7°C 58% 1.0 mph SW1.6 kmh SW 2.0 mph3.2 kmh 30.42 in1030.1 mb 0.00 in0.0 mm 0.00 in0.0 mm 0.00 in0.0 mm
05:04 PM 27.2°F-2.7°C 14.8°F-9.6°C 59% 1.0 mph SW1.6 kmh SW 2.0 mph3.2 kmh 30.42 in1030.1 mb 0.00 in0.0 mm 0.00 in0.0 mm 0.00 in0.0 mm
05:06 PM 27.2°F-2.7°C 15.1°F-9.4°C 60% 1.0 mph SW1.6 kmh SW 2.0 mph3.2 kmh 30.42 in1030.1 mb 0.00 in0.0 mm 0.00 in0.0 mm 0.00 in0.0 mm
05:08 PM 27.1°F-2.7°C 14.7°F-9.6°C 59% Calm Calm 2.0 mph3.2 kmh 30.42 in1030.1 mb 0.00 in0.0 mm 0.00 in0.0 mm 0.00 in0.0 mm
05:10 PM 27.1°F-2.7°C 15.0°F-9.4°C 60% Calm Calm 2.0 mph3.2 kmh 30.42 in1030.1 mb 0.00 in0.0 mm 0.00 in0.0 mm 0.00 in0.0 mm
05:12 PM 27.0°F-2.8°C 14.9°F-9.5°C 60% Calm Calm 2.0 mph3.2 kmh 30.42 in1030.1 mb 0.00 in0.0 mm 0.00 in0.0 mm 0.00 in0.0 mm
05:14 PM 27.0°F-2.8°C 15.3°F-9.3°C 61% 1.0 mph SW1.6 kmh SW 2.0 mph3.2 kmh 30.42 in1030.1 mb 0.00 in0.0 mm 0.00 in0.0 mm 0.00 in0.0 mm
05:16 PM 26.9°F-2.8°C 14.9°F-9.5°C 60% 1.0 mph SW1.6 kmh SW 2.0 mph3.2 kmh 30.42 in1030.1 mb 0.00 in0.0 mm 0.00 in0.0 mm 0.00 in0.0 mm
05:18 PM 26.9°F-2.8°C 15.2°F-9.3°C 61% 1.0 mph SW1.6 kmh SW 2.0 mph3.2 kmh 30.42 in1030.1 mb 0.00 in0.0 mm 0.00 in0.0 mm 0.00 in0.0 mm
05:20 PM 26.8°F-2.9°C 15.1°F-9.4°C 61% 1.0 mph SW1.6 kmh SW 2.0 mph3.2 kmh 30.42 in1030.1 mb 0.00 in0.0 mm 0.00 in0.0 mm 0.00 in0.0 mm
05:22 PM 26.7°F-2.9°C 15.0°F-9.4°C 61% 1.0 mph SW1.6 kmh SW 2.0 mph3.2 kmh 30.42 in1030.1 mb 0.00 in0.0 mm 0.00 in0.0 mm 0.00 in0.0 mm
05:24 PM 26.7°F-2.9°C 15.4°F-9.2°C 62% 1.0 mph SW1.6 kmh SW 2.0 mph3.2 kmh 30.42 in1030.1 mb 0.00 in0.0 mm 0.00 in0.0 mm 0.00 in0.0 mm
05:26 PM 26.6°F-3.0°C 15.7°F-9.1°C 63% 1.0 mph SW1.6 kmh SW 2.0 mph3.2 kmh 30.42 in1030.1 mb 0.00 in0.0 mm 0.00 in0.0 mm 0.00 in0.0 mm
05:28 PM 26.6°F-3.0°C 16.1°F-8.8°C 64% Calm Calm 1.0 mph1.6 kmh 30.42 in1030.1 mb 0.00 in0.0 mm 0.00 in0.0 mm 0.00 in0.0 mm
05:30 PM 26.5°F-3.1°C 16.7°F-8.5°C 66% Calm Calm 1.0 mph1.6 kmh 30.42 in1030.1 mb 0.00 in0.0 mm 0.00 in0.0 mm 0.00 in0.0 mm
05:32 PM 26.5°F-3.1°C 17.0°F-8.3°C 67% Calm Calm 1.0 mph1.6 kmh 30.42 in1030.1 mb 0.00 in0.0 mm 0.00 in0.0 mm 0.00 in0.0 mm
05:34 PM 26.4°F-3.1°C 16.9°F-8.4°C 67% Calm Calm 1.0 mph1.6 kmh 30.42 in1030.1 mb 0.00 in0.0 mm 0.00 in0.0 mm 0.00 in0.0 mm
05:36 PM 26.3°F-3.2°C 17.2°F-8.2°C 68% Calm Calm 1.0 mph1.6 kmh 30.42 in1030.1 mb 0.00 in0.0 mm 0.00 in0.0 mm 0.00 in0.0 mm
05:38 PM 26.3°F-3.2°C 17.5°F-8.1°C 69% Calm Calm 2.0 mph3.2 kmh 30.42 in1030.1 mb 0.00 in0.0 mm 0.00 in0.0 mm 0.00 in0.0 mm
05:40 PM 26.3°F-3.2°C 17.2°F-8.2°C 68% Calm Calm 2.0 mph3.2 kmh 30.42 in1030.1 mb 0.00 in0.0 mm 0.00 in0.0 mm 0.00 in0.0 mm
05:42 PM 26.3°F-3.2°C 16.8°F-8.4°C 67% 1.0 mph SW1.6 kmh SW 3.0 mph4.8 kmh 30.42 in1030.1 mb 0.00 in0.0 mm 0.00 in0.0 mm 0.00 in0.0 mm
05:44 PM 26.3°F-3.2°C 16.8°F-8.4°C 67% 1.0 mph SW1.6 kmh SW 3.0 mph4.8 kmh 30.42 in1030.1 mb 0.00 in0.0 mm 0.00 in0.0 mm 0.00 in0.0 mm
05:46 PM 26.4°F-3.1°C 16.6°F-8.6°C 66% 1.0 mph SW1.6 kmh SW 3.0 mph4.8 kmh 30.42 in1030.1 mb 0.00 in0.0 mm 0.00 in0.0 mm 0.00 in0.0 mm
05:48 PM 26.4°F-3.1°C 16.6°F-8.6°C 66% 1.0 mph SW1.6 kmh SW 3.0 mph4.8 kmh 30.42 in1030.1 mb 0.00 in0.0 mm 0.00 in0.0 mm 0.00 in0.0 mm
05:50 PM 26.5°F-3.1°C 17.0°F-8.3°C 67% 1.0 mph SW1.6 kmh SW 3.0 mph4.8 kmh 30.42 in1030.1 mb 0.00 in0.0 mm 0.00 in0.0 mm 0.00 in0.0 mm
05:52 PM 26.5°F-3.1°C 17.0°F-8.3°C 67% 1.0 mph SW1.6 kmh SW 3.0 mph4.8 kmh 30.42 in1030.1 mb 0.00 in0.0 mm 0.00 in0.0 mm 0.00 in0.0 mm
05:54 PM 26.5°F-3.1°C 17.0°F-8.3°C 67% 1.0 mph SW1.6 kmh SW 3.0 mph4.8 kmh 30.42 in1030.1 mb 0.00 in0.0 mm 0.00 in0.0 mm 0.00 in0.0 mm
05:56 PM 26.5°F-3.1°C 16.7°F-8.5°C 66% 1.0 mph SW1.6 kmh SW 3.0 mph4.8 kmh 30.42 in1030.1 mb 0.00 in0.0 mm 0.00 in0.0 mm 0.00 in0.0 mm
05:58 PM 26.5°F-3.1°C 16.7°F-8.5°C 66% 2.0 mph SW3.2 kmh SW 3.0 mph4.8 kmh 30.42 in1030.1 mb 0.00 in0.0 mm 0.00 in0.0 mm 0.00 in0.0 mm
06:00 PM 26.5°F-3.1°C 16.7°F-8.5°C 66% 2.0 mph SW3.2 kmh SW 3.0 mph4.8 kmh 30.42 in1030.1 mb 0.00 in0.0 mm 0.00 in0.0 mm 0.00 in0.0 mm
06:02 PM 26.5°F-3.1°C 16.7°F-8.5°C 66% 2.0 mph SW3.2 kmh SW 3.0 mph4.8 kmh 30.42 in1030.1 mb 0.00 in0.0 mm 0.00 in0.0 mm 0.00 in0.0 mm
06:04 PM 26.6°F-3.0°C 16.8°F-8.4°C 66% 2.0 mph SW3.2 kmh SW 3.0 mph4.8 kmh 30.42 in1030.1 mb 0.00 in0.0 mm 0.00 in0.0 mm 0.00 in0.0 mm
06:06 PM 26.5°F-3.1°C 16.7°F-8.5°C 66% 1.0 mph SW1.6 kmh SW 3.0 mph4.8 kmh 30.42 in1030.1 mb 0.00 in0.0 mm 0.00 in0.0 mm 0.00 in0.0 mm
06:08 PM 26.5°F-3.1°C 16.7°F-8.5°C 66% 2.0 mph SW3.2 kmh SW 4.0 mph6.4 kmh 30.42 in1030.1 mb 0.00 in0.0 mm 0.00 in0.0 mm 0.00 in0.0 mm
06:10 PM 26.5°F-3.1°C 16.3°F-8.7°C 65% 2.0 mph SW3.2 kmh SW 4.0 mph6.4 kmh 30.42 in1030.1 mb 0.00 in0.0 mm 0.00 in0.0 mm 0.00 in0.0 mm
06:12 PM 26.6°F-3.0°C 16.1°F-8.8°C 64% 2.0 mph SSW3.2 kmh SSW 4.0 mph6.4 kmh 30.42 in1030.1 mb 0.00 in0.0 mm 0.00 in0.0 mm 0.00 in0.0 mm
06:14 PM 26.6°F-3.0°C 16.4°F-8.7°C 65% 2.0 mph SSW3.2 kmh SSW 4.0 mph6.4 kmh 30.42 in1030.1 mb 0.00 in0.0 mm 0.00 in0.0 mm 0.00 in0.0 mm
06:16 PM 26.6°F-3.0°C 16.4°F-8.7°C 65% 2.0 mph S3.2 kmh S 4.0 mph6.4 kmh 30.42 in1030.1 mb 0.00 in0.0 mm 0.00 in0.0 mm 0.00 in0.0 mm
06:18 PM 26.6°F-3.0°C 16.4°F-8.7°C 65% 2.0 mph S3.2 kmh S 4.0 mph6.4 kmh 30.42 in1030.1 mb 0.00 in0.0 mm 0.00 in0.0 mm 0.00 in0.0 mm
06:20 PM 26.7°F-2.9°C 16.5°F-8.6°C 65% 2.0 mph S3.2 kmh S 4.0 mph6.4 kmh 30.42 in1030.1 mb 0.00 in0.0 mm 0.00 in0.0 mm 0.00 in0.0 mm
06:22 PM 26.6°F-3.0°C 16.4°F-8.7°C 65% 2.0 mph S3.2 kmh S 4.0 mph6.4 kmh 30.41 in1029.8 mb 0.00 in0.0 mm 0.00 in0.0 mm 0.00 in0.0 mm
06:24 PM 26.6°F-3.0°C 16.4°F-8.7°C 65% 2.0 mph S3.2 kmh S 4.0 mph6.4 kmh 30.41 in1029.8 mb 0.00 in0.0 mm 0.00 in0.0 mm 0.00 in0.0 mm
06:26 PM 26.6°F-3.0°C 16.4°F-8.7°C 65% 2.0 mph S3.2 kmh S 4.0 mph6.4 kmh 30.41 in1029.8 mb 0.00 in0.0 mm 0.00 in0.0 mm 0.00 in0.0 mm
06:28 PM 26.6°F-3.0°C 16.4°F-8.7°C 65% 2.0 mph S3.2 kmh S 4.0 mph6.4 kmh 30.41 in1029.8 mb 0.00 in0.0 mm 0.00 in0.0 mm 0.00 in0.0 mm
06:30 PM 26.6°F-3.0°C 16.4°F-8.7°C 65% 2.0 mph S3.2 kmh S 4.0 mph6.4 kmh 30.41 in1029.8 mb 0.00 in0.0 mm 0.00 in0.0 mm 0.00 in0.0 mm
06:32 PM 26.6°F-3.0°C 16.4°F-8.7°C 65% 2.0 mph S3.2 kmh S 4.0 mph6.4 kmh 30.41 in1029.8 mb 0.00 in0.0 mm 0.00 in0.0 mm 0.00 in0.0 mm
06:34 PM 26.6°F-3.0°C 16.4°F-8.7°C 65% 2.0 mph S3.2 kmh S 4.0 mph6.4 kmh 30.41 in1029.8 mb 0.00 in0.0 mm 0.00 in0.0 mm 0.00 in0.0 mm
06:36 PM 26.7°F-2.9°C 16.5°F-8.6°C 65% 2.0 mph S3.2 kmh S 4.0 mph6.4 kmh 30.41 in1029.8 mb 0.00 in0.0 mm 0.00 in0.0 mm 0.00 in0.0 mm
06:38 PM 26.7°F-2.9°C 16.5°F-8.6°C 65% 2.0 mph S3.2 kmh S 4.0 mph6.4 kmh 30.41 in1029.8 mb 0.00 in0.0 mm 0.00 in0.0 mm 0.00 in0.0 mm
06:40 PM 26.8°F-2.9°C 16.2°F-8.8°C 64% 2.0 mph S3.2 kmh S 4.0 mph6.4 kmh 30.41 in1029.8 mb 0.00 in0.0 mm 0.00 in0.0 mm 0.00 in0.0 mm
06:42 PM 26.8°F-2.9°C 16.2°F-8.8°C 64% 2.0 mph S3.2 kmh S 4.0 mph6.4 kmh 30.41 in1029.8 mb 0.00 in0.0 mm 0.00 in0.0 mm 0.00 in0.0 mm
06:44 PM 26.9°F-2.8°C 16.3°F-8.7°C 64% 2.0 mph S3.2 kmh S 4.0 mph6.4 kmh 30.40 in1029.5 mb 0.00 in0.0 mm 0.00 in0.0 mm 0.00 in0.0 mm
06:46 PM 26.9°F-2.8°C 16.0°F-8.9°C 63% 2.0 mph S3.2 kmh S 4.0 mph6.4 kmh 30.41 in1029.8 mb 0.00 in0.0 mm 0.00 in0.0 mm 0.00 in0.0 mm
06:48 PM 27.0°F-2.8°C 16.1°F-8.8°C 63% 2.0 mph S3.2 kmh S 4.0 mph6.4 kmh 30.41 in1029.8 mb 0.00 in0.0 mm 0.00 in0.0 mm 0.00 in0.0 mm
06:50 PM 27.0°F-2.8°C 16.1°F-8.8°C 63% 2.0 mph S3.2 kmh S 4.0 mph6.4 kmh 30.40 in1029.5 mb 0.00 in0.0 mm 0.00 in0.0 mm 0.00 in0.0 mm
06:52 PM 27.1°F-2.7°C 16.2°F-8.8°C 63% 2.0 mph S3.2 kmh S 4.0 mph6.4 kmh 30.40 in1029.5 mb 0.00 in0.0 mm 0.00 in0.0 mm 0.00 in0.0 mm
06:54 PM 27.1°F-2.7°C 16.2°F-8.8°C 63% 2.0 mph S3.2 kmh S 4.0 mph6.4 kmh 30.40 in1029.5 mb 0.00 in0.0 mm 0.00 in0.0 mm 0.00 in0.0 mm
06:56 PM 27.1°F-2.7°C 16.2°F-8.8°C 63% 2.0 mph S3.2 kmh S 4.0 mph6.4 kmh 30.40 in1029.5 mb 0.00 in0.0 mm 0.00 in0.0 mm 0.00 in0.0 mm
06:58 PM 27.1°F-2.7°C 16.2°F-8.8°C 63% 2.0 mph S3.2 kmh S 3.0 mph4.8 kmh 30.40 in1029.5 mb 0.00 in0.0 mm 0.00 in0.0 mm 0.00 in0.0 mm
07:00 PM 27.1°F-2.7°C 16.2°F-8.8°C 63% 2.0 mph S3.2 kmh S 4.0 mph6.4 kmh 30.40 in1029.5 mb 0.00 in0.0 mm 0.00 in0.0 mm 0.00 in0.0 mm
07:02 PM 27.2°F-2.7°C 16.3°F-8.7°C 63% 2.0 mph S3.2 kmh S 4.0 mph6.4 kmh 30.40 in1029.5 mb 0.00 in0.0 mm 0.00 in0.0 mm 0.00 in0.0 mm
07:04 PM 27.2°F-2.7°C 16.3°F-8.7°C 63% 2.0 mph S3.2 kmh S 4.0 mph6.4 kmh 30.40 in1029.5 mb 0.00 in0.0 mm 0.00 in0.0 mm 0.00 in0.0 mm
07:06 PM 27.3°F-2.6°C 16.0°F-8.9°C 62% 2.0 mph S3.2 kmh S 4.0 mph6.4 kmh 30.40 in1029.5 mb 0.00 in0.0 mm 0.00 in0.0 mm 0.00 in0.0 mm
07:08 PM 27.4°F-2.6°C 16.1°F-8.8°C 62% 2.0 mph S3.2 kmh S 4.0 mph6.4 kmh 30.40 in1029.5 mb 0.00 in0.0 mm 0.00 in0.0 mm 0.00 in0.0 mm
07:10 PM 27.4°F-2.6°C 16.1°F-8.8°C 62% 2.0 mph S3.2 kmh S 4.0 mph6.4 kmh 30.40 in1029.5 mb 0.00 in0.0 mm 0.00 in0.0 mm 0.00 in0.0 mm
07:12 PM 27.5°F-2.5°C 16.5°F-8.6°C 63% 2.0 mph S3.2 kmh S 4.0 mph6.4 kmh 30.40 in1029.5 mb 0.00 in0.0 mm 0.00 in0.0 mm 0.00 in0.0 mm
07:14 PM 27.5°F-2.5°C 15.8°F-9.0°C 61% 2.0 mph S3.2 kmh S 4.0 mph6.4 kmh 30.39 in1029.1 mb 0.00 in0.0 mm 0.00 in0.0 mm 0.00 in0.0 mm
07:16 PM 27.5°F-2.5°C 16.2°F-8.8°C 62% 1.0 mph S1.6 kmh S 4.0 mph6.4 kmh 30.39 in1029.1 mb 0.00 in0.0 mm 0.00 in0.0 mm 0.00 in0.0 mm
07:18 PM 27.5°F-2.5°C 16.5°F-8.6°C 63% 1.0 mph S1.6 kmh S 4.0 mph6.4 kmh 30.39 in1029.1 mb 0.00 in0.0 mm 0.00 in0.0 mm 0.00 in0.0 mm
07:20 PM 27.5°F-2.5°C 16.5°F-8.6°C 63% 1.0 mph S1.6 kmh S 4.0 mph6.4 kmh 30.39 in1029.1 mb 0.00 in0.0 mm 0.00 in0.0 mm 0.00 in0.0 mm
07:22 PM 27.4°F-2.6°C 16.4°F-8.7°C 63% 1.0 mph S1.6 kmh S 4.0 mph6.4 kmh 30.39 in1029.1 mb 0.00 in0.0 mm 0.00 in0.0 mm 0.00 in0.0 mm
07:24 PM 27.4°F-2.6°C 16.4°F-8.7°C 63% 1.0 mph S1.6 kmh S 3.0 mph4.8 kmh 30.39 in1029.1 mb 0.00 in0.0 mm 0.00 in0.0 mm 0.00 in0.0 mm
07:26 PM 27.4°F-2.6°C 16.1°F-8.8°C 62% 1.0 mph S1.6 kmh S 3.0 mph4.8 kmh 30.39 in1029.1 mb 0.00 in0.0 mm 0.00 in0.0 mm 0.00 in0.0 mm
07:28 PM 27.4°F-2.6°C 16.1°F-8.8°C 62% Calm Calm 3.0 mph4.8 kmh 30.39 in1029.1 mb 0.00 in0.0 mm 0.00 in0.0 mm 0.00 in0.0 mm
07:30 PM 27.4°F-2.6°C 15.7°F-9.1°C 61% Calm Calm 2.0 mph3.2 kmh 30.39 in1029.1 mb 0.00 in0.0 mm 0.00 in0.0 mm 0.00 in0.0 mm
07:32 PM 27.4°F-2.6°C 15.7°F-9.1°C 61% Calm Calm 2.0 mph3.2 kmh 30.39 in1029.1 mb 0.00 in0.0 mm 0.00 in0.0 mm 0.00 in0.0 mm
07:34 PM 27.4°F-2.6°C 15.7°F-9.1°C 61% Calm Calm 2.0 mph3.2 kmh 30.39 in1029.1 mb 0.00 in0.0 mm 0.00 in0.0 mm 0.00 in0.0 mm
07:36 PM 27.4°F-2.6°C 15.7°F-9.1°C 61% Calm Calm 2.0 mph3.2 kmh 30.39 in1029.1 mb 0.00 in0.0 mm 0.00 in0.0 mm 0.00 in0.0 mm
07:38 PM 27.4°F-2.6°C 16.1°F-8.8°C 62% Calm Calm 2.0 mph3.2 kmh 30.38 in1028.8 mb 0.00 in0.0 mm 0.00 in0.0 mm 0.00 in0.0 mm
07:40 PM 27.4°F-2.6°C 16.4°F-8.7°C 63% Calm Calm 1.0 mph1.6 kmh 30.38 in1028.8 mb 0.00 in0.0 mm 0.00 in0.0 mm 0.00 in0.0 mm
07:42 PM 27.3°F-2.6°C 16.4°F-8.7°C 63% Calm Calm 1.0 mph1.6 kmh 30.38 in1028.8 mb 0.00 in0.0 mm 0.00 in0.0 mm 0.00 in0.0 mm
07:44 PM 27.2°F-2.7°C 15.9°F-8.9°C 62% Calm Calm 2.0 mph3.2 kmh 30.38 in1028.8 mb 0.00 in0.0 mm 0.00 in0.0 mm 0.00 in0.0 mm
07:46 PM 27.2°F-2.7°C 15.9°F-8.9°C 62% Calm Calm 2.0 mph3.2 kmh 30.38 in1028.8 mb 0.00 in0.0 mm 0.00 in0.0 mm 0.00 in0.0 mm
07:48 PM 27.1°F-2.7°C 15.8°F-9.0°C 62% Calm Calm 2.0 mph3.2 kmh 30.38 in1028.8 mb 0.00 in0.0 mm 0.00 in0.0 mm 0.00 in0.0 mm
07:50 PM 27.0°F-2.8°C 16.1°F-8.8°C 63% 1.0 mph S1.6 kmh S 2.0 mph3.2 kmh 30.38 in1028.8 mb 0.00 in0.0 mm 0.00 in0.0 mm 0.00 in0.0 mm
07:52 PM 27.0°F-2.8°C 16.1°F-8.8°C 63% 1.0 mph S1.6 kmh S 2.0 mph3.2 kmh 30.38 in1028.8 mb 0.00 in0.0 mm 0.00 in0.0 mm 0.00 in0.0 mm
07:54 PM 26.9°F-2.8°C 15.6°F-9.1°C 62% 1.0 mph S1.6 kmh S 2.0 mph3.2 kmh 30.38 in1028.8 mb 0.00 in0.0 mm 0.00 in0.0 mm 0.00 in0.0 mm
07:56 PM 26.9°F-2.8°C 16.0°F-8.9°C 63% 1.0 mph S1.6 kmh S 2.0 mph3.2 kmh 30.38 in1028.8 mb 0.00 in0.0 mm 0.00 in0.0 mm 0.00 in0.0 mm
07:58 PM 26.8°F-2.9°C 15.9°F-8.9°C 63% 1.0 mph S1.6 kmh S 2.0 mph3.2 kmh 30.38 in1028.8 mb 0.00 in0.0 mm 0.00 in0.0 mm 0.00 in0.0 mm
08:00 PM 26.8°F-2.9°C 15.9°F-8.9°C 63% 1.0 mph S1.6 kmh S 3.0 mph4.8 kmh 30.38 in1028.8 mb 0.00 in0.0 mm 0.00 in0.0 mm 0.00 in0.0 mm
08:02 PM 26.7°F-2.9°C 15.8°F-9.0°C 63% 1.0 mph S1.6 kmh S 3.0 mph4.8 kmh 30.38 in1028.8 mb 0.00 in0.0 mm 0.00 in0.0 mm 0.00 in0.0 mm
08:04 PM 26.7°F-2.9°C 16.1°F-8.8°C 64% 1.0 mph S1.6 kmh S 3.0 mph4.8 kmh 30.38 in1028.8 mb 0.00 in0.0 mm 0.00 in0.0 mm 0.00 in0.0 mm
08:06 PM 26.7°F-2.9°C 16.5°F-8.6°C 65% 1.0 mph S1.6 kmh S 3.0 mph4.8 kmh 30.38 in1028.8 mb 0.00 in0.0 mm 0.00 in0.0 mm 0.00 in0.0 mm
08:08 PM 26.6°F-3.0°C 16.1°F-8.8°C 64% 1.0 mph S1.6 kmh S 3.0 mph4.8 kmh 30.38 in1028.8 mb 0.00 in0.0 mm 0.00 in0.0 mm 0.00 in0.0 mm
08:10 PM 26.6°F-3.0°C 16.4°F-8.7°C 65% 1.0 mph S1.6 kmh S 3.0 mph4.8 kmh 30.38 in1028.8 mb 0.00 in0.0 mm 0.00 in0.0 mm 0.00 in0.0 mm
08:12 PM 26.5°F-3.1°C 16.3°F-8.7°C 65% 1.0 mph S1.6 kmh S 3.0 mph4.8 kmh 30.38 in1028.8 mb 0.00 in0.0 mm 0.00 in0.0 mm 0.00 in0.0 mm
08:14 PM 26.5°F-3.1°C 16.3°F-8.7°C 65% 1.0 mph S1.6 kmh S 3.0 mph4.8 kmh 30.38 in1028.8 mb 0.00 in0.0 mm 0.00 in0.0 mm 0.00 in0.0 mm
08:16 PM 26.5°F-3.1°C 16.3°F-8.7°C 65% 1.0 mph S1.6 kmh S 3.0 mph4.8 kmh 30.38 in1028.8 mb 0.00 in0.0 mm 0.00 in0.0 mm 0.00 in0.0 mm
08:18 PM 26.4°F-3.1°C 16.2°F-8.8°C 65% 1.0 mph S1.6 kmh S 3.0 mph4.8 kmh 30.38 in1028.8 mb 0.00 in0.0 mm 0.00 in0.0 mm 0.00 in0.0 mm
08:20 PM 26.3°F-3.2°C 16.5°F-8.6°C 66% 1.0 mph S1.6 kmh S 3.0 mph4.8 kmh 30.38 in1028.8 mb 0.00 in0.0 mm 0.00 in0.0 mm 0.00 in0.0 mm
08:22 PM 26.3°F-3.2°C 16.5°F-8.6°C 66% 1.0 mph S1.6 kmh S 4.0 mph6.4 kmh 30.38 in1028.8 mb 0.00 in0.0 mm 0.00 in0.0 mm 0.00 in0.0 mm
08:24 PM 26.2°F-3.2°C 16.4°F-8.7°C 66% 2.0 mph S3.2 kmh S 4.0 mph6.4 kmh 30.38 in1028.8 mb 0.00 in0.0 mm 0.00 in0.0 mm 0.00 in0.0 mm
08:26 PM 26.2°F-3.2°C 16.4°F-8.7°C 66% 2.0 mph S3.2 kmh S 4.0 mph6.4 kmh 30.38 in1028.8 mb 0.00 in0.0 mm 0.00 in0.0 mm 0.00 in0.0 mm
08:28 PM 26.2°F-3.2°C 16.4°F-8.7°C 66% 2.0 mph S3.2 kmh S 4.0 mph6.4 kmh 30.38 in1028.8 mb 0.00 in0.0 mm 0.00 in0.0 mm 0.00 in0.0 mm
08:30 PM 26.2°F-3.2°C 16.0°F-8.9°C 65% 2.0 mph S3.2 kmh S 4.0 mph6.4 kmh 30.38 in1028.8 mb 0.00 in0.0 mm 0.00 in0.0 mm 0.00 in0.0 mm
08:32 PM 26.2°F-3.2°C 16.0°F-8.9°C 65% 1.0 mph S1.6 kmh S 3.0 mph4.8 kmh 30.37 in1028.4 mb 0.00 in0.0 mm 0.00 in0.0 mm 0.00 in0.0 mm
08:34 PM 26.2°F-3.2°C 16.0°F-8.9°C 65% 1.0 mph S1.6 kmh S 3.0 mph4.8 kmh 30.37 in1028.4 mb 0.00 in0.0 mm 0.00 in0.0 mm 0.00 in0.0 mm
08:36 PM 26.2°F-3.2°C 15.7°F-9.1°C 64% 2.0 mph S3.2 kmh S 3.0 mph4.8 kmh 30.37 in1028.4 mb 0.00 in0.0 mm 0.00 in0.0 mm 0.00 in0.0 mm
08:38 PM 26.2°F-3.2°C 15.7°F-9.1°C 64% 2.0 mph S3.2 kmh S 3.0 mph4.8 kmh 30.37 in1028.4 mb 0.00 in0.0 mm 0.00 in0.0 mm 0.00 in0.0 mm
08:40 PM 26.2°F-3.2°C 16.0°F-8.9°C 65% 2.0 mph S3.2 kmh S 3.0 mph4.8 kmh 30.37 in1028.4 mb 0.00 in0.0 mm 0.00 in0.0 mm 0.00 in0.0 mm
08:42 PM 26.1°F-3.3°C 15.9°F-8.9°C 65% 2.0 mph S3.2 kmh S 3.0 mph4.8 kmh 30.38 in1028.8 mb 0.00 in0.0 mm 0.00 in0.0 mm 0.00 in0.0 mm
08:44 PM 26.1°F-3.3°C 15.9°F-8.9°C 65% 2.0 mph S3.2 kmh S 3.0 mph4.8 kmh 30.38 in1028.8 mb 0.00 in0.0 mm 0.00 in0.0 mm 0.00 in0.0 mm
08:46 PM 26.1°F-3.3°C 15.9°F-8.9°C 65% 2.0 mph S3.2 kmh S 5.0 mph8.0 kmh 30.38 in1028.8 mb 0.00 in0.0 mm 0.00 in0.0 mm 0.00 in0.0 mm
08:48 PM 26.1°F-3.3°C 15.9°F-8.9°C 65% 2.0 mph S3.2 kmh S 5.0 mph8.0 kmh 30.38 in1028.8 mb 0.00 in0.0 mm 0.00 in0.0 mm 0.00 in0.0 mm
08:50 PM 26.1°F-3.3°C 16.3°F-8.7°C 66% 2.0 mph S3.2 kmh S 5.0 mph8.0 kmh 30.38 in1028.8 mb 0.00 in0.0 mm 0.00 in0.0 mm 0.00 in0.0 mm
08:52 PM 26.1°F-3.3°C 16.3°F-8.7°C 66% 2.0 mph S3.2 kmh S 5.0 mph8.0 kmh 30.38 in1028.8 mb 0.00 in0.0 mm 0.00 in0.0 mm 0.00 in0.0 mm
08:54 PM 26.1°F-3.3°C 16.3°F-8.7°C 66% 2.0 mph S3.2 kmh S 5.0 mph8.0 kmh 30.38 in1028.8 mb 0.00 in0.0 mm 0.00 in0.0 mm 0.00 in0.0 mm
08:56 PM 26.0°F-3.3°C 16.2°F-8.8°C 66% 2.0 mph S3.2 kmh S 4.0 mph6.4 kmh 30.38 in1028.8 mb 0.00 in0.0 mm 0.00 in0.0 mm 0.00 in0.0 mm
08:58 PM 26.0°F-3.3°C 16.5°F-8.6°C 67% 2.0 mph S3.2 kmh S 5.0 mph8.0 kmh 30.38 in1028.8 mb 0.00 in0.0 mm 0.00 in0.0 mm 0.00 in0.0 mm
09:00 PM 25.9°F-3.4°C 16.4°F-8.7°C 67% 2.0 mph S3.2 kmh S 5.0 mph8.0 kmh 30.38 in1028.8 mb 0.00 in0.0 mm 0.00 in0.0 mm 0.00 in0.0 mm
09:02 PM 25.8°F-3.4°C 16.3°F-8.7°C 67% 3.0 mph S4.8 kmh S 5.0 mph8.0 kmh 30.37 in1028.4 mb 0.00 in0.0 mm 0.00 in0.0 mm 0.00 in0.0 mm
09:04 PM 25.7°F-3.5°C 15.9°F-8.9°C 66% 3.0 mph S4.8 kmh S 5.0 mph8.0 kmh 30.37 in1028.4 mb 0.00 in0.0 mm 0.00 in0.0 mm 0.00 in0.0 mm
09:06 PM 25.7°F-3.5°C 16.3°F-8.7°C 67% 3.0 mph S4.8 kmh S 5.0 mph8.0 kmh 30.37 in1028.4 mb 0.00 in0.0 mm 0.00 in0.0 mm 0.00 in0.0 mm
09:08 PM 25.7°F-3.5°C 16.6°F-8.6°C 68% 2.0 mph S3.2 kmh S 5.0 mph8.0 kmh 30.37 in1028.4 mb 0.00 in0.0 mm 0.00 in0.0 mm 0.00 in0.0 mm
09:10 PM 25.7°F-3.5°C 16.6°F-8.6°C 68% 2.0 mph S3.2 kmh S 5.0 mph8.0 kmh 30.37 in1028.4 mb 0.00 in0.0 mm 0.00 in0.0 mm 0.00 in0.0 mm
09:12 PM 25.7°F-3.5°C 16.6°F-8.6°C 68% 2.0 mph S3.2 kmh S 4.0 mph6.4 kmh 30.36 in1028.1 mb 0.00 in0.0 mm 0.00 in0.0 mm 0.00 in0.0 mm
09:14 PM 25.8°F-3.4°C 16.7°F-8.5°C 68% 1.0 mph S1.6 kmh S 4.0 mph6.4 kmh 30.36 in1028.1 mb 0.00 in0.0 mm 0.00 in0.0 mm 0.00 in0.0 mm
09:16 PM 25.8°F-3.4°C 16.3°F-8.7°C 67% 1.0 mph S1.6 kmh S 4.0 mph6.4 kmh 30.36 in1028.1 mb 0.00 in0.0 mm 0.00 in0.0 mm 0.00 in0.0 mm
09:18 PM 25.8°F-3.4°C 16.3°F-8.7°C 67% 2.0 mph S3.2 kmh S 5.0 mph8.0 kmh 30.36 in1028.1 mb 0.00 in0.0 mm 0.00 in0.0 mm 0.00 in0.0 mm
09:20 PM 25.8°F-3.4°C 16.3°F-8.7°C 67% 2.0 mph S3.2 kmh S 5.0 mph8.0 kmh 30.36 in1028.1 mb 0.00 in0.0 mm 0.00 in0.0 mm 0.00 in0.0 mm
09:22 PM 25.8°F-3.4°C 16.3°F-8.7°C 67% 2.0 mph S3.2 kmh S 5.0 mph8.0 kmh 30.36 in1028.1 mb 0.00 in0.0 mm 0.00 in0.0 mm 0.00 in0.0 mm
09:24 PM 25.9°F-3.4°C 16.4°F-8.7°C 67% 2.0 mph S3.2 kmh S 5.0 mph8.0 kmh 30.36 in1028.1 mb 0.00 in0.0 mm 0.00 in0.0 mm 0.00 in0.0 mm
09:26 PM 26.0°F-3.3°C 16.2°F-8.8°C 66% 2.0 mph S3.2 kmh S 5.0 mph8.0 kmh 30.36 in1028.1 mb 0.00 in0.0 mm 0.00 in0.0 mm 0.00 in0.0 mm
09:28 PM 26.0°F-3.3°C 16.2°F-8.8°C 66% 2.0 mph SSE3.2 kmh SSE 4.0 mph6.4 kmh 30.36 in1028.1 mb 0.00 in0.0 mm 0.00 in0.0 mm 0.00 in0.0 mm
09:30 PM 26.0°F-3.3°C 16.2°F-8.8°C 66% 2.0 mph SSE3.2 kmh SSE 6.0 mph9.7 kmh 30.36 in1028.1 mb 0.00 in0.0 mm 0.00 in0.0 mm 0.00 in0.0 mm
09:32 PM 26.1°F-3.3°C 16.3°F-8.7°C 66% 2.0 mph SSE3.2 kmh SSE 6.0 mph9.7 kmh 30.36 in1028.1 mb 0.00 in0.0 mm 0.00 in0.0 mm 0.00 in0.0 mm
09:34 PM 26.1°F-3.3°C 16.3°F-8.7°C 66% 3.0 mph SSE4.8 kmh SSE 6.0 mph9.7 kmh 30.36 in1028.1 mb 0.00 in0.0 mm 0.00 in0.0 mm 0.00 in0.0 mm
09:36 PM 26.2°F-3.2°C 16.4°F-8.7°C 66% 3.0 mph S4.8 kmh S 6.0 mph9.7 kmh 30.36 in1028.1 mb 0.00 in0.0 mm 0.00 in0.0 mm 0.00 in0.0 mm
09:38 PM 26.3°F-3.2°C 16.5°F-8.6°C 66% 3.0 mph S4.8 kmh S 6.0 mph9.7 kmh 30.36 in1028.1 mb 0.00 in0.0 mm 0.00 in0.0 mm 0.00 in0.0 mm
09:40 PM 26.3°F-3.2°C 16.5°F-8.6°C 66% 3.0 mph S4.8 kmh S 6.0 mph9.7 kmh 30.36 in1028.1 mb 0.00 in0.0 mm 0.00 in0.0 mm 0.00 in0.0 mm
09:42 PM 26.4°F-3.1°C 16.6°F-8.6°C 66% 3.0 mph S4.8 kmh S 6.0 mph9.7 kmh 30.36 in1028.1 mb 0.00 in0.0 mm 0.00 in0.0 mm 0.00 in0.0 mm
09:44 PM 26.4°F-3.1°C 16.6°F-8.6°C 66% 3.0 mph S4.8 kmh S 6.0 mph9.7 kmh 30.36 in1028.1 mb 0.00 in0.0 mm 0.00 in0.0 mm 0.00 in0.0 mm
09:46 PM 26.4°F-3.1°C 16.6°F-8.6°C 66% 2.0 mph S3.2 kmh S 5.0 mph8.0 kmh 30.36 in1028.1 mb 0.00 in0.0 mm 0.00 in0.0 mm 0.00 in0.0 mm
09:48 PM 26.4°F-3.1°C 16.9°F-8.4°C 67% 2.0 mph S3.2 kmh S 5.0 mph8.0 kmh 30.35 in1027.8 mb 0.00 in0.0 mm 0.00 in0.0 mm 0.00 in0.0 mm
09:50 PM 26.4°F-3.1°C 16.6°F-8.6°C 66% 3.0 mph S4.8 kmh S 8.0 mph12.9 kmh 30.35 in1027.8 mb 0.00 in0.0 mm 0.00 in0.0 mm 0.00 in0.0 mm
09:52 PM 26.4°F-3.1°C 16.9°F-8.4°C 67% 3.0 mph S4.8 kmh S 8.0 mph12.9 kmh 30.35 in1027.8 mb 0.00 in0.0 mm 0.00 in0.0 mm 0.00 in0.0 mm
09:54 PM 26.5°F-3.1°C 17.0°F-8.3°C 67% 3.0 mph S4.8 kmh S 8.0 mph12.9 kmh 30.34 in1027.4 mb 0.00 in0.0 mm 0.00 in0.0 mm 0.00 in0.0 mm
09:56 PM 26.5°F-3.1°C 17.0°F-8.3°C 67% 3.0 mph S4.8 kmh S 8.0 mph12.9 kmh 30.34 in1027.4 mb 0.00 in0.0 mm 0.00 in0.0 mm 0.00 in0.0 mm
09:58 PM 26.4°F-3.1°C 16.9°F-8.4°C 67% 3.0 mph S4.8 kmh S 8.0 mph12.9 kmh 30.34 in1027.4 mb 0.00 in0.0 mm 0.00 in0.0 mm 0.00 in0.0 mm
10:00 PM 26.4°F-3.1°C 16.9°F-8.4°C 67% 3.0 mph S4.8 kmh S 6.0 mph9.7 kmh 30.34 in1027.4 mb 0.00 in0.0 mm 0.00 in0.0 mm 0.00 in0.0 mm
10:02 PM 26.4°F-3.1°C 16.9°F-8.4°C 67% 3.0 mph S4.8 kmh S 6.0 mph9.7 kmh 30.34 in1027.4 mb 0.00 in0.0 mm 0.00 in0.0 mm 0.00 in0.0 mm
10:04 PM 26.4°F-3.1°C 17.3°F-8.2°C 68% 3.0 mph S4.8 kmh S 9.0 mph14.5 kmh 30.34 in1027.4 mb 0.00 in0.0 mm 0.00 in0.0 mm 0.00 in0.0 mm
10:06 PM 26.4°F-3.1°C 17.3°F-8.2°C 68% 3.0 mph S4.8 kmh S 9.0 mph14.5 kmh 30.34 in1027.4 mb 0.00 in0.0 mm 0.00 in0.0 mm 0.00 in0.0 mm
10:08 PM 26.5°F-3.1°C 17.4°F-8.1°C 68% 3.0 mph S4.8 kmh S 9.0 mph14.5 kmh 30.34 in1027.4 mb 0.00 in0.0 mm 0.00 in0.0 mm 0.00 in0.0 mm
10:10 PM 26.5°F-3.1°C 17.4°F-8.1°C 68% 3.0 mph S4.8 kmh S 9.0 mph14.5 kmh 30.34 in1027.4 mb 0.00 in0.0 mm 0.00 in0.0 mm 0.00 in0.0 mm
10:12 PM 26.5°F-3.1°C 17.4°F-8.1°C 68% 4.0 mph S6.4 kmh S 9.0 mph14.5 kmh 30.34 in1027.4 mb 0.00 in0.0 mm 0.00 in0.0 mm 0.00 in0.0 mm
10:14 PM 26.5°F-3.1°C 17.4°F-8.1°C 68% 3.0 mph S4.8 kmh S 9.0 mph14.5 kmh 30.34 in1027.4 mb 0.00 in0.0 mm 0.00 in0.0 mm 0.00 in0.0 mm
10:16 PM 26.5°F-3.1°C 17.4°F-8.1°C 68% 3.0 mph S4.8 kmh S 9.0 mph14.5 kmh 30.34 in1027.4 mb 0.00 in0.0 mm 0.00 in0.0 mm 0.00 in0.0 mm
10:18 PM 26.6°F-3.0°C 17.5°F-8.1°C 68% 3.0 mph S4.8 kmh S 9.0 mph14.5 kmh 30.34 in1027.4 mb 0.00 in0.0 mm 0.00 in0.0 mm 0.00 in0.0 mm
10:20 PM 26.5°F-3.1°C 17.7°F-7.9°C 69% 3.0 mph S4.8 kmh S 9.0 mph14.5 kmh 30.34 in1027.4 mb 0.00 in0.0 mm 0.00 in0.0 mm 0.00 in0.0 mm
10:22 PM 26.5°F-3.1°C 17.4°F-8.1°C 68% 3.0 mph S4.8 kmh S 9.0 mph14.5 kmh 30.34 in1027.4 mb 0.00 in0.0 mm 0.00 in0.0 mm 0.00 in0.0 mm
10:24 PM 26.5°F-3.1°C 17.7°F-7.9°C 69% 3.0 mph S4.8 kmh S 9.0 mph14.5 kmh 30.34 in1027.4 mb 0.00 in0.0 mm 0.00 in0.0 mm 0.00 in0.0 mm
10:26 PM 26.5°F-3.1°C 17.7°F-7.9°C 69% 3.0 mph S4.8 kmh S 9.0 mph14.5 kmh 30.34 in1027.4 mb 0.00 in0.0 mm 0.00 in0.0 mm 0.00 in0.0 mm
10:28 PM 26.5°F-3.1°C 17.7°F-7.9°C 69% 3.0 mph S4.8 kmh S 9.0 mph14.5 kmh 30.34 in1027.4 mb 0.00 in0.0 mm 0.00 in0.0 mm 0.00 in0.0 mm
10:30 PM 26.5°F-3.1°C 17.7°F-7.9°C 69% 4.0 mph S6.4 kmh S 9.0 mph14.5 kmh 30.34 in1027.4 mb 0.00 in0.0 mm 0.00 in0.0 mm 0.00 in0.0 mm
10:32 PM 26.5°F-3.1°C 17.7°F-7.9°C 69% 3.0 mph S4.8 kmh S 8.0 mph12.9 kmh 30.33 in1027.1 mb 0.00 in0.0 mm 0.00 in0.0 mm 0.00 in0.0 mm
10:34 PM 26.5°F-3.1°C 17.7°F-7.9°C 69% 3.0 mph S4.8 kmh S 8.0 mph12.9 kmh 30.33 in1027.1 mb 0.00 in0.0 mm 0.00 in0.0 mm 0.00 in0.0 mm
10:36 PM 26.5°F-3.1°C 17.7°F-7.9°C 69% 4.0 mph S6.4 kmh S 8.0 mph12.9 kmh 30.33 in1027.1 mb 0.00 in0.0 mm 0.00 in0.0 mm 0.00 in0.0 mm
10:38 PM 26.5°F-3.1°C 17.7°F-7.9°C 69% 4.0 mph S6.4 kmh S 8.0 mph12.9 kmh 30.33 in1027.1 mb 0.00 in0.0 mm 0.00 in0.0 mm 0.00 in0.0 mm
10:40 PM 26.5°F-3.1°C 17.7°F-7.9°C 69% 4.0 mph S6.4 kmh S 8.0 mph12.9 kmh 30.33 in1027.1 mb 0.00 in0.0 mm 0.00 in0.0 mm 0.00 in0.0 mm
10:42 PM 26.5°F-3.1°C 18.0°F-7.8°C 70% 4.0 mph S6.4 kmh S 7.0 mph11.3 kmh 30.33 in1027.1 mb 0.00 in0.0 mm 0.00 in0.0 mm 0.00 in0.0 mm
10:44 PM 26.5°F-3.1°C 18.0°F-7.8°C 70% 4.0 mph S6.4 kmh S 7.0 mph11.3 kmh 30.33 in1027.1 mb 0.00 in0.0 mm 0.00 in0.0 mm 0.00 in0.0 mm
10:46 PM 26.6°F-3.0°C 18.1°F-7.7°C 70% 4.0 mph S6.4 kmh S 7.0 mph11.3 kmh 30.33 in1027.1 mb 0.00 in0.0 mm 0.00 in0.0 mm 0.00 in0.0 mm
10:48 PM 26.6°F-3.0°C 17.8°F-7.9°C 69% 4.0 mph S6.4 kmh S 8.0 mph12.9 kmh 30.33 in1027.1 mb 0.00 in0.0 mm 0.00 in0.0 mm 0.00 in0.0 mm
10:50 PM 26.7°F-2.9°C 17.9°F-7.8°C 69% 4.0 mph S6.4 kmh S 8.0 mph12.9 kmh 30.33 in1027.1 mb 0.00 in0.0 mm 0.00 in0.0 mm 0.00 in0.0 mm
10:52 PM 26.7°F-2.9°C 17.9°F-7.8°C 69% 4.0 mph S6.4 kmh S 8.0 mph12.9 kmh 30.33 in1027.1 mb 0.00 in0.0 mm 0.00 in0.0 mm 0.00 in0.0 mm
10:54 PM 26.7°F-2.9°C 17.9°F-7.8°C 69% 4.0 mph S6.4 kmh S 8.0 mph12.9 kmh 30.33 in1027.1 mb 0.00 in0.0 mm 0.00 in0.0 mm 0.00 in0.0 mm
10:56 PM 26.7°F-2.9°C 17.9°F-7.8°C 69% 4.0 mph S6.4 kmh S 8.0 mph12.9 kmh 30.33 in1027.1 mb 0.00 in0.0 mm 0.00 in0.0 mm 0.00 in0.0 mm
10:58 PM 26.8°F-2.9°C 17.6°F-8.0°C 68% 4.0 mph S6.4 kmh S 8.0 mph12.9 kmh 30.33 in1027.1 mb 0.00 in0.0 mm 0.00 in0.0 mm 0.00 in0.0 mm
11:00 PM 26.8°F-2.9°C 18.0°F-7.8°C 69% 4.0 mph S6.4 kmh S 8.0 mph12.9 kmh 30.33 in1027.1 mb 0.00 in0.0 mm 0.00 in0.0 mm 0.00 in0.0 mm
11:02 PM 26.8°F-2.9°C 18.0°F-7.8°C 69% 4.0 mph S6.4 kmh S 8.0 mph12.9 kmh 30.33 in1027.1 mb 0.00 in0.0 mm 0.00 in0.0 mm 0.00 in0.0 mm
11:04 PM 26.9°F-2.8°C 18.1°F-7.7°C 69% 4.0 mph S6.4 kmh S 8.0 mph12.9 kmh 30.32 in1026.8 mb 0.00 in0.0 mm 0.00 in0.0 mm 0.00 in0.0 mm
11:06 PM 26.9°F-2.8°C 18.1°F-7.7°C 69% 3.0 mph S4.8 kmh S 7.0 mph11.3 kmh 30.32 in1026.8 mb 0.00 in0.0 mm 0.00 in0.0 mm 0.00 in0.0 mm
11:08 PM 26.9°F-2.8°C 18.1°F-7.7°C 69% 3.0 mph S4.8 kmh S 7.0 mph11.3 kmh 30.33 in1027.1 mb 0.00 in0.0 mm 0.00 in0.0 mm 0.00 in0.0 mm
11:10 PM 26.9°F-2.8°C 18.1°F-7.7°C 69% 3.0 mph S4.8 kmh S 8.0 mph12.9 kmh 30.33 in1027.1 mb 0.00 in0.0 mm 0.00 in0.0 mm 0.00 in0.0 mm
11:12 PM 26.9°F-2.8°C 18.1°F-7.7°C 69% 3.0 mph S4.8 kmh S 8.0 mph12.9 kmh 30.33 in1027.1 mb 0.00 in0.0 mm 0.00 in0.0 mm 0.00 in0.0 mm
11:14 PM 26.9°F-2.8°C 18.1°F-7.7°C 69% 4.0 mph S6.4 kmh S 8.0 mph12.9 kmh 30.33 in1027.1 mb 0.00 in0.0 mm 0.00 in0.0 mm 0.00 in0.0 mm
11:16 PM 26.8°F-2.9°C 18.3°F-7.6°C 70% 3.0 mph S4.8 kmh S 8.0 mph12.9 kmh 30.33 in1027.1 mb 0.00 in0.0 mm 0.00 in0.0 mm 0.00 in0.0 mm
11:18 PM 26.8°F-2.9°C 18.3°F-7.6°C 70% 3.0 mph S4.8 kmh S 8.0 mph12.9 kmh 30.32 in1026.8 mb 0.00 in0.0 mm 0.00 in0.0 mm 0.00 in0.0 mm
11:20 PM 26.8°F-2.9°C 18.3°F-7.6°C 70% 3.0 mph S4.8 kmh S 5.0 mph8.0 kmh 30.32 in1026.8 mb 0.00 in0.0 mm 0.00 in0.0 mm 0.00 in0.0 mm
11:22 PM 26.8°F-2.9°C 18.3°F-7.6°C 70% 3.0 mph S4.8 kmh S 8.0 mph12.9 kmh 30.32 in1026.8 mb 0.00 in0.0 mm 0.00 in0.0 mm 0.00 in0.0 mm
11:24 PM 26.9°F-2.8°C 18.1°F-7.7°C 69% 3.0 mph S4.8 kmh S 8.0 mph12.9 kmh 30.32 in1026.8 mb 0.00 in0.0 mm 0.00 in0.0 mm 0.00 in0.0 mm
11:26 PM 26.9°F-2.8°C 18.1°F-7.7°C 69% 3.0 mph S4.8 kmh S 8.0 mph12.9 kmh 30.32 in1026.8 mb 0.00 in0.0 mm 0.00 in0.0 mm 0.00 in0.0 mm
11:28 PM 27.0°F-2.8°C 18.2°F-7.7°C 69% 4.0 mph S6.4 kmh S 8.0 mph12.9 kmh 30.32 in1026.8 mb 0.00 in0.0 mm 0.00 in0.0 mm 0.00 in0.0 mm
11:30 PM 27.0°F-2.8°C 18.2°F-7.7°C 69% 4.0 mph S6.4 kmh S 8.0 mph12.9 kmh 30.32 in1026.8 mb 0.00 in0.0 mm 0.00 in0.0 mm 0.00 in0.0 mm
11:32 PM 27.0°F-2.8°C 18.2°F-7.7°C 69% 4.0 mph S6.4 kmh S 8.0 mph12.9 kmh 30.32 in1026.8 mb 0.00 in0.0 mm 0.00 in0.0 mm 0.00 in0.0 mm
11:34 PM 27.0°F-2.8°C 18.2°F-7.7°C 69% 4.0 mph S6.4 kmh S 8.0 mph12.9 kmh 30.32 in1026.8 mb 0.00 in0.0 mm 0.00 in0.0 mm 0.00 in0.0 mm
11:36 PM 27.0°F-2.8°C 18.2°F-7.7°C 69% 4.0 mph S6.4 kmh S 8.0 mph12.9 kmh 30.32 in1026.8 mb 0.00 in0.0 mm 0.00 in0.0 mm 0.00 in0.0 mm
11:38 PM 27.1°F-2.7°C 18.3°F-7.6°C 69% 4.0 mph S6.4 kmh S 8.0 mph12.9 kmh 30.32 in1026.8 mb 0.00 in0.0 mm 0.00 in0.0 mm 0.00 in0.0 mm
11:40 PM 27.1°F-2.7°C 17.9°F-7.8°C 68% 4.0 mph S6.4 kmh S 8.0 mph12.9 kmh 30.32 in1026.8 mb 0.00 in0.0 mm 0.00 in0.0 mm 0.00 in0.0 mm
11:42 PM 27.1°F-2.7°C 17.9°F-7.8°C 68% 4.0 mph S6.4 kmh S 8.0 mph12.9 kmh 30.32 in1026.8 mb 0.00 in0.0 mm 0.00 in0.0 mm 0.00 in0.0 mm
11:44 PM 27.2°F-2.7°C 18.0°F-7.8°C 68% 4.0 mph S6.4 kmh S 8.0 mph12.9 kmh 30.32 in1026.8 mb 0.00 in0.0 mm 0.00 in0.0 mm 0.00 in0.0 mm
11:46 PM 27.2°F-2.7°C 18.0°F-7.8°C 68% 4.0 mph S6.4 kmh S 8.0 mph12.9 kmh 30.32 in1026.8 mb 0.00 in0.0 mm 0.00 in0.0 mm 0.00 in0.0 mm
11:48 PM 27.2°F-2.7°C 18.0°F-7.8°C 68% 4.0 mph S6.4 kmh S 7.0 mph11.3 kmh 30.32 in1026.8 mb 0.00 in0.0 mm 0.00 in0.0 mm 0.00 in0.0 mm
11:50 PM 27.2°F-2.7°C 18.0°F-7.8°C 68% 4.0 mph S6.4 kmh S 8.0 mph12.9 kmh 30.32 in1026.8 mb 0.00 in0.0 mm 0.00 in0.0 mm 0.00 in0.0 mm
11:52 PM 27.2°F-2.7°C 18.0°F-7.8°C 68% 4.0 mph S6.4 kmh S 8.0 mph12.9 kmh 30.31 in1026.4 mb 0.00 in0.0 mm 0.00 in0.0 mm 0.00 in0.0 mm
11:54 PM 27.2°F-2.7°C 17.7°F-7.9°C 67% 4.0 mph S6.4 kmh S 10.0 mph16.1 kmh 30.31 in1026.4 mb 0.00 in0.0 mm 0.00 in0.0 mm 0.00 in0.0 mm
11:56 PM 27.3°F-2.6°C 17.8°F-7.9°C 67% 4.0 mph S6.4 kmh S 10.0 mph16.1 kmh 30.31 in1026.4 mb 0.00 in0.0 mm 0.00 in0.0 mm 0.00 in0.0 mm
11:58 PM 27.3°F-2.6°C 17.8°F-7.9°C 67% 5.0 mph S8.0 kmh S 10.0 mph16.1 kmh 30.31 in1026.4 mb 0.00 in0.0 mm 0.00 in0.0 mm 0.00 in0.0 mm